Time,TemperatureF,DewpointF,PressureIn,WindDirection,WindDirectionDegrees,WindSpeedMPH,WindSpeedGustMPH,Humidity,HourlyPrecipIn,Conditions,Clouds,dailyrainin,SoftwareType,DateUTC
2013-11-28 00:00:00,34.5,26.1,29.81,WNW,302,5.0,15.0,71,0.00,,,0.69,meteohub,2013-11-28 05:00:00,
2013-11-28 00:01:00,34.5,26.1,29.81,WNW,282,3.0,15.0,71,0.00,,,0.69,meteohub,2013-11-28 05:01:00,
2013-11-28 00:04:00,34.5,26.1,29.82,WNW,282,6.0,15.0,71,0.00,,,0.69,meteohub,2013-11-28 05:04:00,
2013-11-28 00:06:00,34.5,26.1,29.82,WNW,298,4.0,15.0,71,0.00,,,0.00,meteohub,2013-11-28 05:06:00,
2013-11-28 00:08:00,34.3,25.9,29.82,WSW,246,10.0,15.0,71,0.00,,,0.00,meteohub,2013-11-28 05:08:00,
2013-11-28 00:09:00,34.3,25.5,29.82,WSW,252,5.0,15.0,70,0.00,,,0.00,meteohub,2013-11-28 05:09:00,
2013-11-28 00:11:00,34.3,25.5,29.83,West,265,12.0,16.0,70,0.00,,,0.00,meteohub,2013-11-28 05:11:00,
2013-11-28 00:12:00,34.2,25.3,29.82,WSW,241,12.0,16.0,70,0.00,,,0.00,meteohub,2013-11-28 05:12:00,
2013-11-28 00:13:00,34.2,25.3,29.82,WSW,242,13.0,16.0,70,0.00,,,0.00,meteohub,2013-11-28 05:13:00,
2013-11-28 00:14:00,34.2,25.3,29.83,WSW,257,15.0,16.0,70,0.00,,,0.00,meteohub,2013-11-28 05:14:00,
2013-11-28 00:16:00,34.0,24.6,29.83,West,273,13.0,18.0,68,0.00,,,0.00,meteohub,2013-11-28 05:16:00,
2013-11-28 00:18:00,34.0,24.8,29.82,NW,308,12.0,18.0,69,0.00,,,0.00,meteohub,2013-11-28 05:18:00,
2013-11-28 00:19:00,33.8,24.4,29.83,West,281,14.0,18.0,68,0.00,,,0.00,meteohub,2013-11-28 05:19:00,
2013-11-28 00:21:00,33.6,23.9,29.83,West,269,10.0,18.0,67,0.00,,,0.00,meteohub,2013-11-28 05:21:00,
2013-11-28 00:23:00,33.6,24.3,29.83,WNW,302,10.0,18.0,68,0.00,,,0.00,meteohub,2013-11-28 05:23:00,
2013-11-28 00:24:00,33.6,24.3,29.83,West,261,18.0,18.0,68,0.00,,,0.00,meteohub,2013-11-28 05:24:00,
2013-11-28 00:25:00,33.6,24.3,29.83,West,266,11.0,18.0,68,0.00,,,0.00,meteohub,2013-11-28 05:25:00,
2013-11-28 00:26:00,33.4,23.7,29.83,West,274,10.0,27.0,67,0.00,,,0.00,meteohub,2013-11-28 05:26:00,
2013-11-28 00:29:00,33.4,23.7,29.83,West,272,9.0,27.0,67,0.00,,,0.00,meteohub,2013-11-28 05:29:00,
2013-11-28 00:30:00,33.4,23.7,29.83,WNW,292,15.0,27.0,67,0.00,,,0.00,meteohub,2013-11-28 05:30:00,
2013-11-28 00:31:00,33.4,23.7,29.83,NW,304,11.0,27.0,67,0.00,,,0.00,meteohub,2013-11-28 05:31:00,
2013-11-28 00:34:00,33.4,24.1,29.84,West,267,7.0,27.0,68,0.00,,,0.00,meteohub,2013-11-28 05:34:00,
2013-11-28 00:35:00,33.3,23.9,29.84,WNW,286,8.0,27.0,68,0.00,,,0.00,meteohub,2013-11-28 05:35:00,
2013-11-28 00:36:00,33.3,23.9,29.84,WNW,300,8.0,27.0,68,0.00,,,0.00,meteohub,2013-11-28 05:36:00,
2013-11-28 00:37:00,33.3,24.3,29.84,WNW,299,10.0,27.0,69,0.00,,,0.00,meteohub,2013-11-28 05:37:00,
2013-11-28 00:39:00,33.1,24.1,29.84,WNW,292,11.0,27.0,69,0.00,,,0.00,meteohub,2013-11-28 05:39:00,
2013-11-28 00:41:00,33.1,24.4,29.84,West,267,16.0,22.0,70,0.00,,,0.00,meteohub,2013-11-28 05:41:00,
2013-11-28 00:42:00,32.9,24.3,29.84,WNW,283,7.0,22.0,70,0.00,,,0.00,meteohub,2013-11-28 05:42:00,
2013-11-28 00:44:00,32.7,24.1,29.84,WNW,298,11.0,22.0,70,0.00,,,0.00,meteohub,2013-11-28 05:44:00,
2013-11-28 00:45:00,32.7,23.7,29.84,WNW,293,5.0,22.0,69,0.00,,,0.00,meteohub,2013-11-28 05:45:00,
2013-11-28 00:46:00,32.7,23.7,29.84,NW,307,11.0,19.0,69,0.00,,,0.00,meteohub,2013-11-28 05:46:00,
2013-11-28 00:47:00,32.7,23.7,29.84,WSW,257,10.0,19.0,69,0.00,,,0.00,meteohub,2013-11-28 05:47:00,
2013-11-28 00:48:00,32.7,24.1,29.84,WNW,290,11.0,19.0,70,0.00,,,0.00,meteohub,2013-11-28 05:48:00,
2013-11-28 00:49:00,32.7,24.1,29.85,WNW,297,14.0,19.0,70,0.00,,,0.00,meteohub,2013-11-28 05:49:00,
2013-11-28 00:50:00,32.7,24.1,29.85,WNW,287,11.0,19.0,70,0.00,,,0.00,meteohub,2013-11-28 05:50:00,
2013-11-28 00:52:00,32.7,24.1,29.85,West,264,4.0,19.0,70,0.00,,,0.00,meteohub,2013-11-28 05:52:00,
2013-11-28 00:53:00,32.7,24.1,29.85,West,265,4.0,19.0,70,0.00,,,0.00,meteohub,2013-11-28 05:53:00,
2013-11-28 00:54:00,32.5,23.9,29.85,West,265,7.0,19.0,70,0.00,,,0.00,meteohub,2013-11-28 05:54:00,
2013-11-28 00:55:00,32.5,23.9,29.85,West,263,12.0,19.0,70,0.00,,,0.00,meteohub,2013-11-28 05:55:00,
2013-11-28 00:57:00,32.5,23.9,29.85,West,276,8.0,19.0,70,0.00,,,0.00,meteohub,2013-11-28 05:57:00,
2013-11-28 00:58:00,32.5,23.9,29.85,WNW,292,9.0,19.0,70,0.00,,,0.00,meteohub,2013-11-28 05:58:00,
2013-11-28 00:59:00,32.5,23.9,29.85,West,275,17.0,19.0,70,0.00,,,0.00,meteohub,2013-11-28 05:59:00,
2013-11-28 01:00:00,32.5,23.5,29.85,NW,304,11.0,19.0,69,0.00,,,0.00,meteohub,2013-11-28 06:00:00,
2013-11-28 01:01:00,32.5,23.5,29.85,West,280,7.0,19.0,69,0.00,,,0.00,meteohub,2013-11-28 06:01:00,
2013-11-28 01:02:00,32.4,23.4,29.85,WNW,295,13.0,19.0,69,0.00,,,0.00,meteohub,2013-11-28 06:02:00,
2013-11-28 01:03:00,32.4,23.4,29.85,West,263,18.0,19.0,69,0.00,,,0.00,meteohub,2013-11-28 06:03:00,
2013-11-28 01:05:00,32.4,23.4,29.86,West,278,10.0,19.0,69,0.00,,,0.00,meteohub,2013-11-28 06:05:00,
2013-11-28 01:07:00,32.4,23.4,29.86,West,261,11.0,19.0,69,0.00,,,0.00,meteohub,2013-11-28 06:07:00,
2013-11-28 01:08:00,32.4,23.4,29.86,West,278,17.0,19.0,69,0.00,,,0.00,meteohub,2013-11-28 06:08:00,
2013-11-28 01:10:00,32.2,23.2,29.86,WNW,292,23.0,23.0,69,0.00,,,0.00,meteohub,2013-11-28 06:10:00,
2013-11-28 01:11:00,32.4,23.4,29.86,WNW,298,13.0,21.0,69,0.00,,,0.00,meteohub,2013-11-28 06:11:00,
2013-11-28 01:12:00,32.2,22.8,29.86,WNW,285,10.0,21.0,68,0.00,,,0.00,meteohub,2013-11-28 06:12:00,
2013-11-28 01:13:00,32.2,22.8,29.86,WNW,286,20.0,21.0,68,0.00,,,0.00,meteohub,2013-11-28 06:13:00,
2013-11-28 01:14:00,32.2,22.8,29.86,WSW,247,10.0,21.0,68,0.00,,,0.00,meteohub,2013-11-28 06:14:00,
2013-11-28 01:15:00,32.2,23.2,29.86,WNW,284,17.0,23.0,69,0.00,,,0.00,meteohub,2013-11-28 06:15:00,
2013-11-28 01:17:00,32.2,22.8,29.86,West,273,11.0,23.0,68,0.00,,,0.00,meteohub,2013-11-28 06:17:00,
2013-11-28 01:18:00,32.2,22.8,29.86,West,281,9.0,23.0,68,0.00,,,0.00,meteohub,2013-11-28 06:18:00,
2013-11-28 01:19:00,32.2,22.8,29.86,WNW,286,11.0,23.0,68,0.00,,,0.00,meteohub,2013-11-28 06:19:00,
2013-11-28 01:21:00,32.2,22.8,29.86,WNW,291,19.0,23.0,68,0.00,,,0.00,meteohub,2013-11-28 06:21:00,
2013-11-28 01:22:00,32.2,22.8,29.86,NW,315,13.0,23.0,68,0.00,,,0.00,meteohub,2013-11-28 06:22:00,
2013-11-28 01:23:00,32.2,22.5,29.87,WNW,287,10.0,23.0,67,0.00,,,0.00,meteohub,2013-11-28 06:23:00,
2013-11-28 01:24:00,32.2,22.5,29.87,WSW,258,8.0,23.0,67,0.00,,,0.00,meteohub,2013-11-28 06:24:00,
2013-11-28 01:26:00,32.2,22.8,29.87,WNW,282,15.0,26.0,68,0.00,,,0.00,meteohub,2013-11-28 06:26:00,
2013-11-28 01:27:00,32.2,22.8,29.87,WNW,286,13.0,26.0,68,0.00,,,0.00,meteohub,2013-11-28 06:27:00,
2013-11-28 01:28:00,32.2,22.8,29.87,West,277,10.0,26.0,68,0.00,,,0.00,meteohub,2013-11-28 06:28:00,
2013-11-28 01:29:00,32.2,22.8,29.87,WNW,289,5.0,26.0,68,0.00,,,0.00,meteohub,2013-11-28 06:29:00,
2013-11-28 01:32:00,32.0,23.0,29.88,WSW,255,7.0,26.0,69,0.00,,,0.00,meteohub,2013-11-28 06:32:00,
2013-11-28 01:33:00,32.0,23.0,29.87,West,260,12.0,26.0,69,0.00,,,0.00,meteohub,2013-11-28 06:33:00,
2013-11-28 01:34:00,31.8,22.8,29.88,West,279,4.0,26.0,69,0.00,,,0.00,meteohub,2013-11-28 06:34:00,
2013-11-28 01:35:00,31.8,22.8,29.88,WSW,240,9.0,26.0,69,0.00,,,0.00,meteohub,2013-11-28 06:35:00,
2013-11-28 01:36:00,31.8,22.8,29.88,WNW,288,8.0,26.0,69,0.00,,,0.00,meteohub,2013-11-28 06:36:00,
2013-11-28 01:38:00,31.8,22.5,29.88,WNW,285,14.0,26.0,68,0.00,,,0.00,meteohub,2013-11-28 06:38:00,
2013-11-28 01:39:00,31.8,22.5,29.88,West,281,18.0,26.0,68,0.00,,,0.00,meteohub,2013-11-28 06:39:00,
2013-11-28 01:40:00,31.8,22.5,29.88,NW,320,14.0,26.0,68,0.00,,,0.00,meteohub,2013-11-28 06:40:00,
2013-11-28 01:41:00,31.8,22.5,29.88,West,275,3.0,24.0,68,0.00,,,0.00,meteohub,2013-11-28 06:41:00,
2013-11-28 01:43:00,31.8,22.8,29.89,West,269,3.0,24.0,69,0.00,,,0.00,meteohub,2013-11-28 06:43:00,
2013-11-28 01:44:00,31.8,22.8,29.89,West,275,10.0,24.0,69,0.00,,,0.00,meteohub,2013-11-28 06:44:00,
2013-11-28 01:45:00,31.8,22.8,29.89,WNW,303,11.0,24.0,69,0.00,,,0.00,meteohub,2013-11-28 06:45:00,
2013-11-28 01:47:00,31.6,22.3,29.89,WNW,288,9.0,19.0,68,0.00,,,0.00,meteohub,2013-11-28 06:47:00,
2013-11-28 01:48:00,31.6,22.3,29.89,NW,313,12.0,19.0,68,0.00,,,0.00,meteohub,2013-11-28 06:48:00,
2013-11-28 01:49:00,31.6,22.3,29.89,WNW,295,11.0,19.0,68,0.00,,,0.00,meteohub,2013-11-28 06:49:00,
2013-11-28 01:50:00,31.6,22.3,29.89,WNW,285,11.0,19.0,68,0.00,,,0.00,meteohub,2013-11-28 06:50:00,
2013-11-28 01:52:00,31.6,21.9,29.89,WNW,294,10.0,19.0,67,0.00,,,0.00,meteohub,2013-11-28 06:52:00,
2013-11-28 01:54:00,31.6,21.9,29.89,WNW,297,11.0,19.0,67,0.00,,,0.00,meteohub,2013-11-28 06:54:00,
2013-11-28 01:55:00,31.6,21.9,29.89,WNW,297,9.0,19.0,67,0.00,,,0.00,meteohub,2013-11-28 06:55:00,
2013-11-28 01:56:00,31.6,22.3,29.89,West,273,7.0,19.0,68,0.00,,,0.00,meteohub,2013-11-28 06:56:00,
2013-11-28 01:58:00,31.5,22.1,29.89,WNW,294,16.0,19.0,68,0.00,,,0.00,meteohub,2013-11-28 06:58:00,
2013-11-28 01:59:00,31.5,21.7,29.90,WNW,294,16.0,19.0,67,0.00,,,0.00,meteohub,2013-11-28 06:59:00,
2013-11-28 02:00:00,31.5,21.7,29.90,WNW,294,10.0,19.0,67,0.00,,,0.00,meteohub,2013-11-28 07:00:00,
2013-11-28 02:01:00,31.5,21.7,29.90,WNW,286,6.0,19.0,67,0.00,,,0.00,meteohub,2013-11-28 07:01:00,
2013-11-28 02:02:00,31.5,21.4,29.90,SW,216,12.0,19.0,66,0.00,,,0.00,meteohub,2013-11-28 07:02:00,
2013-11-28 02:03:00,31.5,21.7,29.90,WNW,285,13.0,19.0,67,0.00,,,0.00,meteohub,2013-11-28 07:03:00,
2013-11-28 02:04:00,31.5,21.7,29.90,West,271,10.0,19.0,67,0.00,,,0.00,meteohub,2013-11-28 07:04:00,
2013-11-28 02:05:00,31.5,21.7,29.90,West,264,12.0,19.0,67,0.00,,,0.00,meteohub,2013-11-28 07:05:00,
2013-11-28 02:07:00,31.5,21.7,29.90,WSW,246,8.0,19.0,67,0.00,,,0.00,meteohub,2013-11-28 07:07:00,
2013-11-28 02:08:00,31.5,21.7,29.91,WNW,286,7.0,19.0,67,0.00,,,0.00,meteohub,2013-11-28 07:08:00,
2013-11-28 02:09:00,31.5,21.7,29.91,WNW,286,14.0,19.0,67,0.00,,,0.00,meteohub,2013-11-28 07:09:00,
2013-11-28 02:10:00,31.5,21.7,29.91,WNW,289,16.0,19.0,67,0.00,,,0.00,meteohub,2013-11-28 07:10:00,
2013-11-28 02:11:00,31.5,21.7,29.91,WNW,300,15.0,19.0,67,0.00,,,0.00,meteohub,2013-11-28 07:11:00,
2013-11-28 02:12:00,31.5,21.7,29.91,WNW,296,12.0,19.0,67,0.00,,,0.00,meteohub,2013-11-28 07:12:00,
2013-11-28 02:13:00,31.5,21.7,29.91,WNW,288,13.0,19.0,67,0.00,,,0.00,meteohub,2013-11-28 07:13:00,
2013-11-28 02:15:00,31.5,21.4,29.91,WNW,284,10.0,19.0,66,0.00,,,0.00,meteohub,2013-11-28 07:15:00,
2013-11-28 02:16:00,31.5,21.4,29.91,West,280,6.0,17.0,66,0.00,,,0.00,meteohub,2013-11-28 07:16:00,
2013-11-28 02:17:00,31.5,21.7,29.91,WSW,244,4.0,17.0,67,0.00,,,0.00,meteohub,2013-11-28 07:17:00,
2013-11-28 02:18:00,31.3,21.6,29.91,West,281,11.0,17.0,67,0.00,,,0.00,meteohub,2013-11-28 07:18:00,
2013-11-28 02:20:00,31.3,21.6,29.92,WNW,293,13.0,17.0,67,0.00,,,0.00,meteohub,2013-11-28 07:20:00,
2013-11-28 02:21:00,31.3,21.2,29.91,West,273,13.0,24.0,66,0.00,,,0.00,meteohub,2013-11-28 07:21:00,
2013-11-28 02:22:00,31.3,21.2,29.91,WNW,286,8.0,24.0,66,0.00,,,0.00,meteohub,2013-11-28 07:22:00,
2013-11-28 02:23:00,31.3,21.2,29.92,WNW,285,6.0,24.0,66,0.00,,,0.00,meteohub,2013-11-28 07:23:00,
2013-11-28 02:24:00,31.3,21.2,29.92,WNW,283,14.0,24.0,66,0.00,,,0.00,meteohub,2013-11-28 07:24:00,
2013-11-28 02:25:00,31.3,21.2,29.92,West,263,12.0,24.0,66,0.00,,,0.00,meteohub,2013-11-28 07:25:00,
2013-11-28 02:27:00,31.3,21.2,29.92,West,273,4.0,24.0,66,0.00,,,0.00,meteohub,2013-11-28 07:27:00,
2013-11-28 02:28:00,31.3,21.6,29.92,WNW,284,8.0,24.0,67,0.00,,,0.00,meteohub,2013-11-28 07:28:00,
2013-11-28 02:29:00,31.3,21.6,29.92,West,278,15.0,24.0,67,0.00,,,0.00,meteohub,2013-11-28 07:29:00,
2013-11-28 02:30:00,31.3,21.2,29.92,WNW,284,8.0,18.0,66,0.00,,,0.00,meteohub,2013-11-28 07:30:00,
2013-11-28 02:32:00,31.3,21.2,29.93,WNW,296,13.0,18.0,66,0.00,,,0.00,meteohub,2013-11-28 07:32:00,
2013-11-28 02:33:00,31.3,21.2,29.92,West,276,9.0,18.0,66,0.00,,,0.00,meteohub,2013-11-28 07:33:00,
2013-11-28 02:34:00,31.3,21.2,29.93,West,275,13.0,18.0,66,0.00,,,0.00,meteohub,2013-11-28 07:34:00,
2013-11-28 02:35:00,31.3,21.2,29.93,WNW,302,18.0,19.0,66,0.00,,,0.00,meteohub,2013-11-28 07:35:00,
2013-11-28 02:36:00,31.3,21.2,29.93,WNW,301,8.0,19.0,66,0.00,,,0.00,meteohub,2013-11-28 07:36:00,
2013-11-28 02:37:00,31.3,20.8,29.93,WNW,290,9.0,19.0,65,0.00,,,0.00,meteohub,2013-11-28 07:37:00,
2013-11-28 02:39:00,31.3,21.2,29.93,WNW,295,5.0,19.0,66,0.00,,,0.00,meteohub,2013-11-28 07:39:00,
2013-11-28 02:40:00,31.3,20.8,29.93,WNW,292,13.0,19.0,65,0.00,,,0.00,meteohub,2013-11-28 07:40:00,
2013-11-28 02:42:00,31.3,21.2,29.94,West,278,7.0,19.0,66,0.00,,,0.00,meteohub,2013-11-28 07:42:00,
2013-11-28 02:43:00,31.3,21.2,29.94,WNW,303,14.0,19.0,66,0.00,,,0.00,meteohub,2013-11-28 07:43:00,
2013-11-28 02:44:00,31.3,21.2,29.94,West,268,9.0,19.0,66,0.00,,,0.00,meteohub,2013-11-28 07:44:00,
2013-11-28 02:45:00,31.3,21.2,29.94,WSW,246,11.0,19.0,66,0.00,,,0.00,meteohub,2013-11-28 07:45:00,
2013-11-28 02:46:00,31.3,21.2,29.94,West,278,8.0,18.0,66,0.00,,,0.00,meteohub,2013-11-28 07:46:00,
2013-11-28 02:47:00,31.3,21.2,29.94,West,281,8.0,18.0,66,0.00,,,0.00,meteohub,2013-11-28 07:47:00,
2013-11-28 02:48:00,31.3,21.2,29.95,West,278,10.0,18.0,66,0.00,,,0.00,meteohub,2013-11-28 07:48:00,
2013-11-28 02:50:00,31.3,21.2,29.95,WNW,296,11.0,18.0,66,0.00,,,0.00,meteohub,2013-11-28 07:50:00,
2013-11-28 02:51:00,31.3,20.8,29.95,WNW,283,4.0,19.0,65,0.00,,,0.00,meteohub,2013-11-28 07:51:00,
2013-11-28 02:53:00,31.3,21.2,29.95,West,281,10.0,19.0,66,0.00,,,0.00,meteohub,2013-11-28 07:53:00,
2013-11-28 02:55:00,31.3,20.8,29.95,WNW,293,7.0,19.0,65,0.00,,,0.00,meteohub,2013-11-28 07:55:00,
2013-11-28 02:57:00,31.3,20.8,29.95,West,265,13.0,19.0,65,0.00,,,0.00,meteohub,2013-11-28 07:57:00,
2013-11-28 02:58:00,31.3,20.8,29.96,WNW,285,13.0,19.0,65,0.00,,,0.00,meteohub,2013-11-28 07:58:00,
2013-11-28 02:59:00,31.3,20.8,29.96,WNW,290,12.0,19.0,65,0.00,,,0.00,meteohub,2013-11-28 07:59:00,
2013-11-28 03:00:00,31.3,20.8,29.96,WNW,284,8.0,19.0,65,0.00,,,0.00,meteohub,2013-11-28 08:00:00,
2013-11-28 03:02:00,31.3,20.8,29.96,West,275,14.0,19.0,65,0.00,,,0.00,meteohub,2013-11-28 08:02:00,
2013-11-28 03:03:00,31.3,20.5,29.96,NW,304,13.0,19.0,64,0.00,,,0.00,meteohub,2013-11-28 08:03:00,
2013-11-28 03:05:00,31.3,20.5,29.96,WNW,296,8.0,19.0,64,0.00,,,0.00,meteohub,2013-11-28 08:05:00,
2013-11-28 03:07:00,31.3,20.8,29.96,West,273,6.0,19.0,65,0.00,,,0.00,meteohub,2013-11-28 08:07:00,
2013-11-28 03:08:00,31.1,20.7,29.96,West,261,8.0,19.0,65,0.00,,,0.00,meteohub,2013-11-28 08:08:00,
2013-11-28 03:09:00,31.1,20.7,29.96,West,280,9.0,19.0,65,0.00,,,0.00,meteohub,2013-11-28 08:09:00,
2013-11-28 03:11:00,31.1,20.7,29.97,West,271,4.0,19.0,65,0.00,,,0.00,meteohub,2013-11-28 08:11:00,
2013-11-28 03:13:00,31.1,20.7,29.97,NW,307,14.0,19.0,65,0.00,,,0.00,meteohub,2013-11-28 08:13:00,
2013-11-28 03:14:00,31.1,20.7,29.97,WNW,297,11.0,19.0,65,0.00,,,0.00,meteohub,2013-11-28 08:14:00,
2013-11-28 03:16:00,31.1,20.7,29.97,WNW,288,7.0,19.0,65,0.00,,,0.00,meteohub,2013-11-28 08:16:00,
2013-11-28 03:18:00,31.1,20.7,29.98,West,275,8.0,19.0,65,0.00,,,0.00,meteohub,2013-11-28 08:18:00,
2013-11-28 03:19:00,31.1,20.7,29.98,West,281,9.0,19.0,65,0.00,,,0.00,meteohub,2013-11-28 08:19:00,
2013-11-28 03:20:00,31.1,20.3,29.98,West,275,19.0,19.0,64,0.00,,,0.00,meteohub,2013-11-28 08:20:00,
2013-11-28 03:21:00,31.1,19.9,29.98,NW,307,11.0,19.0,63,0.00,,,0.00,meteohub,2013-11-28 08:21:00,
2013-11-28 03:23:00,31.1,20.3,29.98,WSW,254,13.0,19.0,64,0.00,,,0.00,meteohub,2013-11-28 08:23:00,
2013-11-28 03:24:00,31.1,20.3,29.98,WNW,291,11.0,19.0,64,0.00,,,0.00,meteohub,2013-11-28 08:24:00,
2013-11-28 03:25:00,31.1,20.3,29.99,WNW,284,4.0,23.0,64,0.00,,,0.00,meteohub,2013-11-28 08:25:00,
2013-11-28 03:26:00,31.1,20.3,29.99,WNW,288,9.0,23.0,64,0.00,,,0.00,meteohub,2013-11-28 08:26:00,
2013-11-28 03:28:00,31.1,20.7,29.99,WNW,285,10.0,23.0,65,0.00,,,0.00,meteohub,2013-11-28 08:28:00,
2013-11-28 03:29:00,31.1,20.7,29.99,WNW,303,10.0,23.0,65,0.00,,,0.00,meteohub,2013-11-28 08:29:00,
2013-11-28 03:30:00,31.1,20.7,29.99,West,267,11.0,23.0,65,0.00,,,0.00,meteohub,2013-11-28 08:30:00,
2013-11-28 03:31:00,31.1,20.3,29.99,West,272,8.0,23.0,64,0.00,,,0.00,meteohub,2013-11-28 08:31:00,
2013-11-28 03:32:00,31.1,20.3,29.99,WNW,291,9.0,23.0,64,0.00,,,0.00,meteohub,2013-11-28 08:32:00,
2013-11-28 03:34:00,31.1,20.3,29.99,West,267,6.0,23.0,64,0.00,,,0.00,meteohub,2013-11-28 08:34:00,
2013-11-28 03:36:00,31.1,20.7,30.00,WNW,286,7.0,23.0,65,0.00,,,0.00,meteohub,2013-11-28 08:36:00,
2013-11-28 03:37:00,31.1,20.7,30.00,WNW,299,7.0,23.0,65,0.00,,,0.00,meteohub,2013-11-28 08:37:00,
2013-11-28 03:38:00,31.1,20.7,30.00,West,270,3.0,23.0,65,0.00,,,0.00,meteohub,2013-11-28 08:38:00,
2013-11-28 03:39:00,30.9,20.5,30.00,WNW,292,14.0,23.0,65,0.00,,,0.00,meteohub,2013-11-28 08:39:00,
2013-11-28 03:41:00,30.9,19.8,30.00,SW,234,12.0,18.0,63,0.00,,,0.00,meteohub,2013-11-28 08:41:00,
2013-11-28 03:42:00,30.9,19.8,30.00,WSW,253,18.0,18.0,63,0.00,,,0.00,meteohub,2013-11-28 08:42:00,
2013-11-28 03:43:00,31.1,19.6,30.00,NW,304,12.0,18.0,62,0.00,,,0.00,meteohub,2013-11-28 08:43:00,
2013-11-28 03:44:00,31.1,19.6,30.00,WNW,282,16.0,18.0,62,0.00,,,0.00,meteohub,2013-11-28 08:44:00,
2013-11-28 03:45:00,31.1,19.6,30.00,NW,325,13.0,18.0,62,0.00,,,0.00,meteohub,2013-11-28 08:45:00,
2013-11-28 03:46:00,31.1,19.6,30.00,WNW,286,8.0,20.0,62,0.00,,,0.00,meteohub,2013-11-28 08:46:00,
2013-11-28 03:47:00,31.1,19.6,30.00,West,263,6.0,20.0,62,0.00,,,0.00,meteohub,2013-11-28 08:47:00,
2013-11-28 03:48:00,31.1,19.9,30.00,West,263,13.0,20.0,63,0.00,,,0.00,meteohub,2013-11-28 08:48:00,
2013-11-28 03:49:00,31.1,19.6,30.00,West,280,11.0,20.0,62,0.00,,,0.00,meteohub,2013-11-28 08:49:00,
2013-11-28 03:50:00,31.1,19.6,30.00,WNW,294,9.0,20.0,62,0.00,,,0.00,meteohub,2013-11-28 08:50:00,
2013-11-28 03:51:00,31.1,19.9,30.00,WNW,290,17.0,22.0,63,0.00,,,0.00,meteohub,2013-11-28 08:51:00,
2013-11-28 03:53:00,30.9,19.8,30.00,WNW,293,14.0,22.0,63,0.00,,,0.00,meteohub,2013-11-28 08:53:00,
2013-11-28 03:54:00,30.9,19.8,30.00,WNW,303,13.0,22.0,63,0.00,,,0.00,meteohub,2013-11-28 08:54:00,
2013-11-28 03:55:00,30.9,19.4,30.01,West,273,14.0,22.0,62,0.00,,,0.00,meteohub,2013-11-28 08:55:00,
2013-11-28 03:56:00,30.9,19.8,30.01,West,266,10.0,22.0,63,0.00,,,0.00,meteohub,2013-11-28 08:56:00,
2013-11-28 03:57:00,30.9,19.8,30.01,West,264,6.0,22.0,63,0.00,,,0.00,meteohub,2013-11-28 08:57:00,
2013-11-28 03:58:00,30.9,19.8,30.01,WNW,297,17.0,22.0,63,0.00,,,0.00,meteohub,2013-11-28 08:58:00,
2013-11-28 03:59:00,30.9,19.0,30.01,North,0,10.0,22.0,61,0.00,,,0.00,meteohub,2013-11-28 08:59:00,
2013-11-28 04:01:00,30.9,19.0,30.01,NW,306,12.0,22.0,61,0.00,,,0.00,meteohub,2013-11-28 09:01:00,
2013-11-28 04:02:00,30.9,19.0,30.01,West,274,21.0,22.0,61,0.00,,,0.00,meteohub,2013-11-28 09:02:00,
2013-11-28 04:04:00,30.9,19.4,30.02,West,273,15.0,22.0,62,0.00,,,0.00,meteohub,2013-11-28 09:04:00,
2013-11-28 04:05:00,30.9,19.4,30.02,WNW,292,8.0,22.0,62,0.00,,,0.00,meteohub,2013-11-28 09:05:00,
2013-11-28 04:06:00,30.9,19.4,30.02,WNW,302,10.0,22.0,62,0.00,,,0.00,meteohub,2013-11-28 09:06:00,
2013-11-28 04:07:00,30.9,19.8,30.02,West,259,7.0,22.0,63,0.00,,,0.00,meteohub,2013-11-28 09:07:00,
2013-11-28 04:09:00,30.7,19.6,30.02,NW,308,18.0,22.0,63,0.00,,,0.00,meteohub,2013-11-28 09:09:00,
2013-11-28 04:11:00,30.7,19.6,30.03,WNW,290,11.0,21.0,63,0.00,,,0.00,meteohub,2013-11-28 09:11:00,
2013-11-28 04:12:00,30.7,19.6,30.02,WNW,286,13.0,21.0,63,0.00,,,0.00,meteohub,2013-11-28 09:12:00,
2013-11-28 04:13:00,30.7,19.6,30.02,West,265,4.0,21.0,63,0.00,,,0.00,meteohub,2013-11-28 09:13:00,
2013-11-28 04:15:00,30.6,19.8,30.03,WNW,286,8.0,21.0,64,0.00,,,0.00,meteohub,2013-11-28 09:15:00,
2013-11-28 04:16:00,30.6,19.8,30.03,West,275,11.0,21.0,64,0.00,,,0.00,meteohub,2013-11-28 09:16:00,
2013-11-28 04:17:00,30.6,19.4,30.03,SW,214,9.0,21.0,63,0.00,,,0.00,meteohub,2013-11-28 09:17:00,
2013-11-28 04:18:00,30.6,19.4,30.03,WNW,297,4.0,21.0,63,0.00,,,0.00,meteohub,2013-11-28 09:18:00,
2013-11-28 04:19:00,30.6,19.4,30.03,WNW,288,10.0,21.0,63,0.00,,,0.00,meteohub,2013-11-28 09:19:00,
2013-11-28 04:22:00,30.6,19.4,30.03,NNW,336,4.0,20.0,63,0.00,,,0.00,meteohub,2013-11-28 09:22:00,
2013-11-28 04:23:00,30.6,19.4,30.03,WNW,295,8.0,20.0,63,0.00,,,0.00,meteohub,2013-11-28 09:23:00,
2013-11-28 04:25:00,30.6,19.4,30.04,West,262,7.0,20.0,63,0.00,,,0.00,meteohub,2013-11-28 09:25:00,
2013-11-28 04:27:00,30.6,19.8,30.04,WNW,294,7.0,20.0,64,0.00,,,0.00,meteohub,2013-11-28 09:27:00,
2013-11-28 04:28:00,30.6,19.8,30.04,WNW,294,8.0,20.0,64,0.00,,,0.00,meteohub,2013-11-28 09:28:00,
2013-11-28 04:30:00,30.6,19.8,30.04,WSW,257,11.0,20.0,64,0.00,,,0.00,meteohub,2013-11-28 09:30:00,
2013-11-28 04:33:00,30.6,19.8,30.04,WNW,296,8.0,20.0,64,0.00,,,0.00,meteohub,2013-11-28 09:33:00,
2013-11-28 04:34:00,30.6,19.8,30.04,WSW,255,8.0,20.0,64,0.00,,,0.00,meteohub,2013-11-28 09:34:00,
2013-11-28 04:36:00,30.6,19.8,30.04,WSW,257,15.0,21.0,64,0.00,,,0.00,meteohub,2013-11-28 09:36:00,
2013-11-28 04:37:00,30.6,19.8,30.04,West,271,8.0,21.0,64,0.00,,,0.00,meteohub,2013-11-28 09:37:00,
2013-11-28 04:38:00,30.6,19.8,30.04,West,275,14.0,21.0,64,0.00,,,0.00,meteohub,2013-11-28 09:38:00,
2013-11-28 04:39:00,30.4,19.2,30.05,WNW,286,12.0,21.0,63,0.00,,,0.00,meteohub,2013-11-28 09:39:00,
2013-11-28 04:40:00,30.6,19.4,30.05,WSW,251,5.0,21.0,63,0.00,,,0.00,meteohub,2013-11-28 09:40:00,
2013-11-28 04:41:00,30.6,19.4,30.05,WSW,258,6.0,21.0,63,0.00,,,0.00,meteohub,2013-11-28 09:41:00,
2013-11-28 04:43:00,30.4,19.6,30.05,West,267,12.0,21.0,64,0.00,,,0.00,meteohub,2013-11-28 09:43:00,
2013-11-28 04:44:00,30.4,19.6,30.05,WSW,250,12.0,21.0,64,0.00,,,0.00,meteohub,2013-11-28 09:44:00,
2013-11-28 04:46:00,30.4,19.6,30.06,WSW,256,5.0,22.0,64,0.00,,,0.00,meteohub,2013-11-28 09:46:00,
2013-11-28 04:47:00,30.4,19.6,30.06,WNW,288,14.0,22.0,64,0.00,,,0.00,meteohub,2013-11-28 09:47:00,
2013-11-28 04:48:00,30.4,19.2,30.06,WNW,292,12.0,22.0,63,0.00,,,0.00,meteohub,2013-11-28 09:48:00,
2013-11-28 04:49:00,30.4,19.2,30.06,WSW,258,8.0,22.0,63,0.00,,,0.00,meteohub,2013-11-28 09:49:00,
2013-11-28 04:50:00,30.4,19.2,30.06,WNW,292,7.0,22.0,63,0.00,,,0.00,meteohub,2013-11-28 09:50:00,
2013-11-28 04:51:00,30.6,19.4,30.06,WSW,254,10.0,22.0,63,0.00,,,0.00,meteohub,2013-11-28 09:51:00,
2013-11-28 04:53:00,30.6,19.4,30.06,WSW,254,9.0,22.0,63,0.00,,,0.00,meteohub,2013-11-28 09:53:00,
2013-11-28 04:55:00,30.6,19.4,30.06,West,279,8.0,22.0,63,0.00,,,0.00,meteohub,2013-11-28 09:55:00,
2013-11-28 04:56:00,30.6,19.4,30.06,WNW,290,10.0,19.0,63,0.00,,,0.00,meteohub,2013-11-28 09:56:00,
2013-11-28 04:59:00,30.6,19.0,30.07,West,262,11.0,19.0,62,0.00,,,0.00,meteohub,2013-11-28 09:59:00,
2013-11-28 05:00:00,30.6,19.0,30.07,SW,220,6.0,19.0,62,0.00,,,0.00,meteohub,2013-11-28 10:00:00,
2013-11-28 05:01:00,30.6,19.4,30.07,NW,309,8.0,19.0,63,0.00,,,0.00,meteohub,2013-11-28 10:01:00,
2013-11-28 05:02:00,30.6,19.4,30.07,West,271,10.0,19.0,63,0.00,,,0.00,meteohub,2013-11-28 10:02:00,
2013-11-28 05:04:00,30.6,19.4,30.08,WNW,294,11.0,19.0,63,0.00,,,0.00,meteohub,2013-11-28 10:04:00,
2013-11-28 05:05:00,30.6,19.4,30.08,WNW,296,8.0,19.0,63,0.00,,,0.00,meteohub,2013-11-28 10:05:00,
2013-11-28 05:07:00,30.4,19.2,30.08,WSW,253,7.0,18.0,63,0.00,,,0.00,meteohub,2013-11-28 10:07:00,
2013-11-28 05:09:00,30.4,19.2,30.08,WNW,284,10.0,18.0,63,0.00,,,0.00,meteohub,2013-11-28 10:09:00,
2013-11-28 05:10:00,30.6,19.0,30.08,WSW,252,9.0,18.0,62,0.00,,,0.00,meteohub,2013-11-28 10:10:00,
2013-11-28 05:11:00,30.6,19.0,30.08,West,273,9.0,18.0,62,0.00,,,0.00,meteohub,2013-11-28 10:11:00,
2013-11-28 05:12:00,30.6,19.4,30.08,WNW,298,13.0,20.0,63,0.00,,,0.00,meteohub,2013-11-28 10:12:00,
2013-11-28 05:14:00,30.6,19.4,30.08,WNW,299,14.0,20.0,63,0.00,,,0.00,meteohub,2013-11-28 10:14:00,
2013-11-28 05:15:00,30.6,19.0,30.08,WNW,298,12.0,20.0,62,0.00,,,0.00,meteohub,2013-11-28 10:15:00,
2013-11-28 05:16:00,30.6,19.4,30.09,WNW,293,10.0,20.0,63,0.00,,,0.00,meteohub,2013-11-28 10:16:00,
2013-11-28 05:17:00,30.6,19.4,30.09,West,275,7.0,20.0,63,0.00,,,0.00,meteohub,2013-11-28 10:17:00,
2013-11-28 05:19:00,30.4,19.2,30.09,West,259,7.0,20.0,63,0.00,,,0.00,meteohub,2013-11-28 10:19:00,
2013-11-28 05:20:00,30.4,19.6,30.09,WNW,297,3.0,20.0,64,0.00,,,0.00,meteohub,2013-11-28 10:20:00,
2013-11-28 05:21:00,30.4,19.2,30.09,WNW,298,5.0,21.0,63,0.00,,,0.00,meteohub,2013-11-28 10:21:00,
2013-11-28 05:22:00,30.4,19.2,30.09,WNW,290,7.0,21.0,63,0.00,,,0.00,meteohub,2013-11-28 10:22:00,
2013-11-28 05:24:00,30.4,19.2,30.09,West,279,9.0,21.0,63,0.00,,,0.00,meteohub,2013-11-28 10:24:00,
2013-11-28 05:26:00,30.4,19.2,30.09,WNW,286,4.0,21.0,63,0.00,,,0.00,meteohub,2013-11-28 10:26:00,
2013-11-28 05:27:00,30.4,18.9,30.10,WNW,292,8.0,21.0,62,0.00,,,0.00,meteohub,2013-11-28 10:27:00,
2013-11-28 05:28:00,30.4,19.2,30.10,WNW,293,7.0,21.0,63,0.00,,,0.00,meteohub,2013-11-28 10:28:00,
2013-11-28 05:29:00,30.4,19.2,30.10,WSW,254,7.0,21.0,63,0.00,,,0.00,meteohub,2013-11-28 10:29:00,
2013-11-28 05:30:00,30.4,19.2,30.10,West,279,9.0,21.0,63,0.00,,,0.00,meteohub,2013-11-28 10:30:00,
2013-11-28 05:31:00,30.2,19.0,30.10,WSW,243,11.0,16.0,63,0.00,,,0.00,meteohub,2013-11-28 10:31:00,
2013-11-28 05:32:00,30.2,19.0,30.10,West,281,8.0,16.0,63,0.00,,,0.00,meteohub,2013-11-28 10:32:00,
2013-11-28 05:33:00,30.2,19.0,30.10,WSW,242,14.0,16.0,63,0.00,,,0.00,meteohub,2013-11-28 10:33:00,
2013-11-28 05:34:00,30.2,19.0,30.10,WSW,239,5.0,16.0,63,0.00,,,0.00,meteohub,2013-11-28 10:34:00,
2013-11-28 05:35:00,30.2,19.0,30.10,West,279,8.0,16.0,63,0.00,,,0.00,meteohub,2013-11-28 10:35:00,
2013-11-28 05:37:00,30.2,19.0,30.10,WNW,288,8.0,18.0,63,0.00,,,0.00,meteohub,2013-11-28 10:37:00,
2013-11-28 05:38:00,30.2,19.0,30.10,WNW,283,10.0,18.0,63,0.00,,,0.00,meteohub,2013-11-28 10:38:00,
2013-11-28 05:40:00,30.0,19.0,30.10,West,276,12.0,18.0,63,0.00,,,0.00,meteohub,2013-11-28 10:40:00,
2013-11-28 05:42:00,30.0,19.0,30.11,WNW,287,8.0,18.0,63,0.00,,,0.00,meteohub,2013-11-28 10:42:00,
2013-11-28 05:43:00,30.0,19.0,30.11,West,277,10.0,18.0,63,0.00,,,0.00,meteohub,2013-11-28 10:43:00,
2013-11-28 05:45:00,30.0,19.0,30.11,SW,232,3.0,18.0,63,0.00,,,0.00,meteohub,2013-11-28 10:45:00,
2013-11-28 05:47:00,30.0,19.4,30.12,WSW,257,4.0,18.0,64,0.00,,,0.00,meteohub,2013-11-28 10:47:00,
2013-11-28 05:48:00,30.0,19.4,30.12,West,272,4.0,18.0,64,0.00,,,0.00,meteohub,2013-11-28 10:48:00,
2013-11-28 05:49:00,30.0,19.4,30.12,West,273,2.0,18.0,64,0.00,,,0.00,meteohub,2013-11-28 10:49:00,
2013-11-28 05:50:00,30.0,19.8,30.12,WNW,286,12.0,18.0,65,0.00,,,0.00,meteohub,2013-11-28 10:50:00,
2013-11-28 05:52:00,30.0,19.4,30.12,SW,223,6.0,15.0,64,0.00,,,0.00,meteohub,2013-11-28 10:52:00,
2013-11-28 05:54:00,30.0,19.4,30.12,WNW,299,11.0,15.0,64,0.00,,,0.00,meteohub,2013-11-28 10:54:00,
2013-11-28 05:55:00,30.0,19.4,30.12,WNW,282,4.0,15.0,64,0.00,,,0.00,meteohub,2013-11-28 10:55:00,
2013-11-28 05:56:00,30.0,19.4,30.13,West,265,6.0,17.0,64,0.00,,,0.00,meteohub,2013-11-28 10:56:00,
2013-11-28 05:57:00,30.0,19.4,30.12,WNW,285,13.0,17.0,64,0.00,,,0.00,meteohub,2013-11-28 10:57:00,
2013-11-28 05:58:00,30.0,19.4,30.13,NNW,329,11.0,17.0,64,0.00,,,0.00,meteohub,2013-11-28 10:58:00,
2013-11-28 05:59:00,30.0,19.8,30.13,WNW,291,5.0,17.0,65,0.00,,,0.00,meteohub,2013-11-28 10:59:00,
2013-11-28 06:01:00,30.0,19.4,30.13,WNW,283,6.0,17.0,64,0.00,,,0.00,meteohub,2013-11-28 11:01:00,
2013-11-28 06:02:00,29.8,19.6,30.13,WNW,287,4.0,17.0,65,0.00,,,0.00,meteohub,2013-11-28 11:02:00,
2013-11-28 06:03:00,29.8,19.6,30.13,WNW,293,5.0,17.0,65,0.00,,,0.00,meteohub,2013-11-28 11:03:00,
2013-11-28 06:04:00,29.8,19.6,30.13,WNW,288,9.0,17.0,65,0.00,,,0.00,meteohub,2013-11-28 11:04:00,
2013-11-28 06:06:00,29.8,19.6,30.13,West,267,7.0,16.0,65,0.00,,,0.00,meteohub,2013-11-28 11:06:00,
2013-11-28 06:07:00,29.8,19.6,30.13,WNW,288,5.0,16.0,65,0.00,,,0.00,meteohub,2013-11-28 11:07:00,
2013-11-28 06:08:00,29.8,19.6,30.13,West,280,11.0,16.0,65,0.00,,,0.00,meteohub,2013-11-28 11:08:00,
2013-11-28 06:09:00,29.8,19.6,30.13,WNW,287,11.0,16.0,65,0.00,,,0.00,meteohub,2013-11-28 11:09:00,
2013-11-28 06:12:00,29.8,19.6,30.13,West,281,6.0,16.0,65,0.00,,,0.00,meteohub,2013-11-28 11:12:00,
2013-11-28 06:13:00,29.8,19.9,30.13,WNW,287,7.0,16.0,66,0.00,,,0.00,meteohub,2013-11-28 11:13:00,
2013-11-28 06:14:00,29.8,19.9,30.13,West,279,4.0,16.0,66,0.00,,,0.00,meteohub,2013-11-28 11:14:00,
2013-11-28 06:17:00,29.7,19.8,30.13,WSW,257,5.0,16.0,66,0.00,,,0.00,meteohub,2013-11-28 11:17:00,
2013-11-28 06:18:00,29.7,19.8,30.13,West,263,9.0,12.0,66,0.00,,,0.00,meteohub,2013-11-28 11:18:00,
2013-11-28 06:20:00,29.7,19.8,30.13,West,271,8.0,12.0,66,0.00,,,0.00,meteohub,2013-11-28 11:20:00,
2013-11-28 06:21:00,29.7,19.8,30.13,WNW,283,8.0,12.0,66,0.00,,,0.00,meteohub,2013-11-28 11:21:00,
2013-11-28 06:22:00,29.7,19.8,30.13,West,261,7.0,12.0,66,0.00,,,0.00,meteohub,2013-11-28 11:22:00,
2013-11-28 06:24:00,29.7,19.8,30.13,WNW,292,8.0,12.0,66,0.00,,,0.00,meteohub,2013-11-28 11:24:00,
2013-11-28 06:25:00,29.7,19.8,30.13,WSW,258,6.0,12.0,66,0.00,,,0.00,meteohub,2013-11-28 11:25:00,
2013-11-28 06:26:00,29.7,19.8,30.13,SW,236,6.0,12.0,66,0.00,,,0.00,meteohub,2013-11-28 11:26:00,
2013-11-28 06:27:00,29.7,19.8,30.14,West,269,9.0,12.0,66,0.00,,,0.00,meteohub,2013-11-28 11:27:00,
2013-11-28 06:29:00,29.7,19.4,30.14,West,273,6.0,12.0,65,0.00,,,0.00,meteohub,2013-11-28 11:29:00,
2013-11-28 06:31:00,29.5,19.2,30.14,WNW,292,7.0,13.0,65,0.00,,,0.00,meteohub,2013-11-28 11:31:00,
2013-11-28 06:32:00,29.5,19.2,30.14,NW,307,7.0,13.0,65,0.00,,,0.00,meteohub,2013-11-28 11:32:00,
2013-11-28 06:34:00,29.7,19.4,30.14,WNW,290,7.0,13.0,65,0.00,,,0.00,meteohub,2013-11-28 11:34:00,
2013-11-28 06:35:00,29.7,19.4,30.14,WNW,290,13.0,13.0,65,0.00,,,0.00,meteohub,2013-11-28 11:35:00,
2013-11-28 06:36:00,29.7,19.4,30.14,WNW,302,9.0,14.0,65,0.00,,,0.00,meteohub,2013-11-28 11:36:00,
2013-11-28 06:37:00,29.7,19.4,30.14,West,271,9.0,14.0,65,0.00,,,0.00,meteohub,2013-11-28 11:37:00,
2013-11-28 06:38:00,29.7,19.4,30.14,West,275,4.0,14.0,65,0.00,,,0.00,meteohub,2013-11-28 11:38:00,
2013-11-28 06:39:00,29.7,19.4,30.14,West,271,6.0,14.0,65,0.00,,,0.00,meteohub,2013-11-28 11:39:00,
2013-11-28 06:40:00,29.7,19.4,30.14,West,279,6.0,14.0,65,0.00,,,0.00,meteohub,2013-11-28 11:40:00,
2013-11-28 06:42:00,29.7,19.4,30.14,West,264,8.0,18.0,65,0.00,,,0.00,meteohub,2013-11-28 11:42:00,
2013-11-28 06:43:00,29.5,19.6,30.14,WNW,298,8.0,18.0,66,0.00,,,0.00,meteohub,2013-11-28 11:43:00,
2013-11-28 06:44:00,29.5,19.2,30.14,SW,229,11.0,18.0,65,0.00,,,0.00,meteohub,2013-11-28 11:44:00,
2013-11-28 06:47:00,29.7,19.4,30.15,NW,306,5.0,18.0,65,0.00,,,0.00,meteohub,2013-11-28 11:47:00,
2013-11-28 06:48:00,29.7,19.4,30.15,WSW,237,4.0,18.0,65,0.00,,,0.00,meteohub,2013-11-28 11:48:00,
2013-11-28 06:49:00,29.5,19.2,30.15,WNW,298,3.0,18.0,65,0.00,,,0.00,meteohub,2013-11-28 11:49:00,
2013-11-28 06:50:00,29.7,19.4,30.15,West,281,9.0,18.0,65,0.00,,,0.00,meteohub,2013-11-28 11:50:00,
2013-11-28 06:52:00,29.7,19.4,30.15,WNW,293,8.0,17.0,65,0.00,,,0.00,meteohub,2013-11-28 11:52:00,
2013-11-28 06:53:00,29.7,19.4,30.15,WNW,300,10.0,17.0,65,0.00,,,0.00,meteohub,2013-11-28 11:53:00,
2013-11-28 06:54:00,29.7,19.4,30.15,NW,307,8.0,17.0,65,0.00,,,0.00,meteohub,2013-11-28 11:54:00,
2013-11-28 06:55:00,29.7,19.4,30.15,NW,318,8.0,17.0,65,0.00,,,0.00,meteohub,2013-11-28 11:55:00,
2013-11-28 06:57:00,29.7,19.4,30.15,WNW,296,5.0,17.0,65,0.00,,,0.00,meteohub,2013-11-28 11:57:00,
2013-11-28 06:58:00,29.7,19.4,30.15,West,259,8.0,17.0,65,0.00,,,0.00,meteohub,2013-11-28 11:58:00,
2013-11-28 06:59:00,29.7,19.4,30.15,NW,312,11.0,17.0,65,0.00,,,0.00,meteohub,2013-11-28 11:59:00,
2013-11-28 07:00:00,29.7,19.4,30.15,NW,304,7.0,17.0,65,0.00,,,0.00,meteohub,2013-11-28 12:00:00,
2013-11-28 07:01:00,29.7,19.0,30.15,West,270,9.0,17.0,64,0.00,,,0.00,meteohub,2013-11-28 12:01:00,
2013-11-28 07:03:00,29.7,19.0,30.15,WNW,294,11.0,17.0,64,0.00,,,0.00,meteohub,2013-11-28 12:03:00,
2013-11-28 07:04:00,29.7,19.4,30.16,West,280,7.0,17.0,65,0.00,,,0.00,meteohub,2013-11-28 12:04:00,
2013-11-28 07:05:00,29.7,19.4,30.16,West,275,9.0,17.0,65,0.00,,,0.00,meteohub,2013-11-28 12:05:00,
2013-11-28 07:07:00,29.7,19.4,30.16,WNW,291,8.0,17.0,65,0.00,,,0.00,meteohub,2013-11-28 12:07:00,
2013-11-28 07:09:00,29.8,19.6,30.16,WSW,250,4.0,17.0,65,0.00,,,0.00,meteohub,2013-11-28 12:09:00,
2013-11-28 07:10:00,29.8,19.6,30.16,West,279,4.0,17.0,65,0.00,,,0.00,meteohub,2013-11-28 12:10:00,
2013-11-28 07:12:00,29.7,19.0,30.16,West,281,10.0,17.0,64,0.00,,,0.00,meteohub,2013-11-28 12:12:00,
2013-11-28 07:15:00,29.7,19.4,30.16,West,267,12.0,17.0,65,0.00,,,0.00,meteohub,2013-11-28 12:15:00,
2013-11-28 07:16:00,29.7,19.4,30.16,NW,309,8.0,17.0,65,0.00,,,0.00,meteohub,2013-11-28 12:16:00,
2013-11-28 07:17:00,29.8,19.2,30.16,WNW,284,7.0,17.0,64,0.00,,,0.00,meteohub,2013-11-28 12:17:00,
2013-11-28 07:20:00,29.8,19.2,30.17,NW,305,4.0,17.0,64,0.00,,,0.00,meteohub,2013-11-28 12:20:00,
2013-11-28 07:21:00,29.8,19.2,30.17,West,277,9.0,17.0,64,0.00,,,0.00,meteohub,2013-11-28 12:21:00,
2013-11-28 07:23:00,29.8,19.2,30.17,WNW,284,7.0,17.0,64,0.00,,,0.00,meteohub,2013-11-28 12:23:00,
2013-11-28 07:25:00,29.8,19.2,30.17,West,279,6.0,17.0,64,0.00,,,0.00,meteohub,2013-11-28 12:25:00,
2013-11-28 07:26:00,29.8,19.2,30.17,West,269,3.0,17.0,64,0.00,,,0.00,meteohub,2013-11-28 12:26:00,
2013-11-28 07:27:00,30.0,19.8,30.17,WNW,290,5.0,17.0,65,0.00,,,0.00,meteohub,2013-11-28 12:27:00,
2013-11-28 07:28:00,30.0,19.8,30.17,NW,306,9.0,17.0,65,0.00,,,0.00,meteohub,2013-11-28 12:28:00,
2013-11-28 07:31:00,30.0,19.8,30.18,WNW,298,7.0,17.0,65,0.00,,,0.00,meteohub,2013-11-28 12:31:00,
2013-11-28 07:32:00,30.0,19.8,30.18,WNW,289,10.0,17.0,65,0.00,,,0.00,meteohub,2013-11-28 12:32:00,
2013-11-28 07:33:00,30.0,19.8,30.18,WNW,295,9.0,17.0,65,0.00,,,0.00,meteohub,2013-11-28 12:33:00,
2013-11-28 07:34:00,30.0,19.4,30.18,WNW,295,3.0,17.0,64,0.00,,,0.00,meteohub,2013-11-28 12:34:00,
2013-11-28 07:35:00,30.2,19.6,30.18,WNW,303,8.0,17.0,64,0.00,,,0.00,meteohub,2013-11-28 12:35:00,
2013-11-28 07:36:00,30.2,19.6,30.18,WSW,255,7.0,16.0,64,0.00,,,0.00,meteohub,2013-11-28 12:36:00,
2013-11-28 07:37:00,30.4,19.2,30.18,West,273,10.0,16.0,63,0.00,,,0.00,meteohub,2013-11-28 12:37:00,
2013-11-28 07:39:00,30.4,19.2,30.18,WNW,292,13.0,16.0,63,0.00,,,0.00,meteohub,2013-11-28 12:39:00,
2013-11-28 07:40:00,30.4,19.2,30.18,WNW,298,13.0,16.0,63,0.00,,,0.00,meteohub,2013-11-28 12:40:00,
2013-11-28 07:41:00,30.4,19.2,30.18,West,275,9.0,16.0,63,0.00,,,0.00,meteohub,2013-11-28 12:41:00,
2013-11-28 07:42:00,30.4,19.2,30.18,WNW,303,8.0,16.0,63,0.00,,,0.00,meteohub,2013-11-28 12:42:00,
2013-11-28 07:44:00,30.6,19.4,30.18,West,273,11.0,16.0,63,0.00,,,0.00,meteohub,2013-11-28 12:44:00,
2013-11-28 07:45:00,30.6,19.4,30.18,WNW,294,8.0,16.0,63,0.00,,,0.00,meteohub,2013-11-28 12:45:00,
2013-11-28 07:46:00,30.6,19.4,30.19,West,271,13.0,15.0,63,0.00,,,0.00,meteohub,2013-11-28 12:46:00,
2013-11-28 07:47:00,30.6,19.4,30.19,NW,312,9.0,15.0,63,0.00,,,0.00,meteohub,2013-11-28 12:47:00,
2013-11-28 07:49:00,30.6,19.4,30.19,WSW,249,8.0,15.0,63,0.00,,,0.00,meteohub,2013-11-28 12:49:00,
2013-11-28 07:50:00,30.6,19.4,30.19,West,271,8.0,15.0,63,0.00,,,0.00,meteohub,2013-11-28 12:50:00,
2013-11-28 07:51:00,30.6,19.4,30.19,West,276,6.0,15.0,63,0.00,,,0.00,meteohub,2013-11-28 12:51:00,
2013-11-28 07:53:00,30.6,19.4,30.19,WNW,292,12.0,15.0,63,0.00,,,0.00,meteohub,2013-11-28 12:53:00,
2013-11-28 07:55:00,30.6,19.4,30.19,WNW,290,7.0,15.0,63,0.00,,,0.00,meteohub,2013-11-28 12:55:00,
2013-11-28 07:56:00,30.6,19.4,30.20,WNW,294,5.0,17.0,63,0.00,,,0.00,meteohub,2013-11-28 12:56:00,
2013-11-28 07:57:00,30.6,19.4,30.20,WNW,301,8.0,17.0,63,0.00,,,0.00,meteohub,2013-11-28 12:57:00,
2013-11-28 07:58:00,30.7,19.6,30.20,West,281,9.0,17.0,63,0.00,,,0.00,meteohub,2013-11-28 12:58:00,
2013-11-28 08:00:00,30.7,19.6,30.20,WNW,291,12.0,17.0,63,0.00,,,0.00,meteohub,2013-11-28 13:00:00,
2013-11-28 08:01:00,30.7,19.9,30.20,WNW,296,14.0,17.0,64,0.00,,,0.00,meteohub,2013-11-28 13:01:00,
2013-11-28 08:02:00,30.7,19.9,30.20,WSW,252,5.0,17.0,64,0.00,,,0.00,meteohub,2013-11-28 13:02:00,
2013-11-28 08:03:00,30.7,19.6,30.20,WNW,300,11.0,17.0,63,0.00,,,0.00,meteohub,2013-11-28 13:03:00,
2013-11-28 08:05:00,30.9,19.8,30.20,NW,314,9.0,17.0,63,0.00,,,0.00,meteohub,2013-11-28 13:05:00,
2013-11-28 08:06:00,30.9,19.8,30.20,WNW,292,11.0,14.0,63,0.00,,,0.00,meteohub,2013-11-28 13:06:00,
2013-11-28 08:08:00,30.9,19.8,30.20,WNW,288,12.0,14.0,63,0.00,,,0.00,meteohub,2013-11-28 13:08:00,
2013-11-28 08:09:00,30.9,19.8,30.20,NW,313,6.0,14.0,63,0.00,,,0.00,meteohub,2013-11-28 13:09:00,
2013-11-28 08:11:00,30.9,19.8,30.21,West,275,12.0,14.0,63,0.00,,,0.00,meteohub,2013-11-28 13:11:00,
2013-11-28 08:12:00,31.1,19.9,30.21,West,276,10.0,14.0,63,0.00,,,0.00,meteohub,2013-11-28 13:12:00,
2013-11-28 08:13:00,31.1,19.9,30.21,WNW,301,5.0,14.0,63,0.00,,,0.00,meteohub,2013-11-28 13:13:00,
2013-11-28 08:15:00,31.1,19.6,30.21,WNW,298,11.0,14.0,62,0.00,,,0.00,meteohub,2013-11-28 13:15:00,
2013-11-28 08:16:00,31.3,19.8,30.22,WSW,252,4.0,15.0,62,0.00,,,0.00,meteohub,2013-11-28 13:16:00,
2013-11-28 08:17:00,31.3,20.1,30.22,WNW,294,9.0,15.0,63,0.00,,,0.00,meteohub,2013-11-28 13:17:00,
2013-11-28 08:18:00,31.3,20.1,30.22,West,271,10.0,15.0,63,0.00,,,0.00,meteohub,2013-11-28 13:18:00,
2013-11-28 08:19:00,31.3,20.1,30.22,West,277,4.0,15.0,63,0.00,,,0.00,meteohub,2013-11-28 13:19:00,
2013-11-28 08:20:00,31.3,20.1,30.22,WNW,298,12.0,15.0,63,0.00,,,0.00,meteohub,2013-11-28 13:20:00,
2013-11-28 08:21:00,31.3,20.1,30.22,West,266,6.0,15.0,63,0.00,,,0.00,meteohub,2013-11-28 13:21:00,
2013-11-28 08:22:00,31.3,20.1,30.22,WNW,303,9.0,15.0,63,0.00,,,0.00,meteohub,2013-11-28 13:22:00,
2013-11-28 08:23:00,31.3,20.1,30.22,West,271,12.0,15.0,63,0.00,,,0.00,meteohub,2013-11-28 13:23:00,
2013-11-28 08:24:00,31.5,20.3,30.22,WNW,284,10.0,15.0,63,0.00,,,0.00,meteohub,2013-11-28 13:24:00,
2013-11-28 08:25:00,31.5,20.3,30.22,WNW,282,12.0,15.0,63,0.00,,,0.00,meteohub,2013-11-28 13:25:00,
2013-11-28 08:27:00,31.5,19.9,30.22,West,265,7.0,17.0,62,0.00,,,0.00,meteohub,2013-11-28 13:27:00,
2013-11-28 08:28:00,31.5,20.3,30.22,WNW,290,7.0,17.0,63,0.00,,,0.00,meteohub,2013-11-28 13:28:00,
2013-11-28 08:29:00,31.5,20.3,30.22,NW,308,13.0,17.0,63,0.00,,,0.00,meteohub,2013-11-28 13:29:00,
2013-11-28 08:30:00,31.5,20.3,30.22,WNW,299,9.0,17.0,63,0.00,,,0.00,meteohub,2013-11-28 13:30:00,
2013-11-28 08:31:00,31.6,20.5,30.22,WNW,299,13.0,17.0,63,0.00,,,0.00,meteohub,2013-11-28 13:31:00,
2013-11-28 08:32:00,31.6,20.5,30.22,West,264,11.0,17.0,63,0.00,,,0.00,meteohub,2013-11-28 13:32:00,
2013-11-28 08:34:00,31.6,20.1,30.22,WNW,294,3.0,17.0,62,0.00,,,0.00,meteohub,2013-11-28 13:34:00,
2013-11-28 08:35:00,31.6,20.1,30.22,WNW,289,11.0,17.0,62,0.00,,,0.00,meteohub,2013-11-28 13:35:00,
2013-11-28 08:36:00,31.8,20.3,30.22,WNW,303,11.0,17.0,62,0.00,,,0.00,meteohub,2013-11-28 13:36:00,
2013-11-28 08:37:00,31.8,20.3,30.22,WNW,292,4.0,17.0,62,0.00,,,0.00,meteohub,2013-11-28 13:37:00,
2013-11-28 08:39:00,31.8,19.9,30.22,WNW,296,8.0,17.0,61,0.00,,,0.00,meteohub,2013-11-28 13:39:00,
2013-11-28 08:41:00,32.0,20.5,30.22,WNW,284,11.0,15.0,62,0.00,,,0.00,meteohub,2013-11-28 13:41:00,
2013-11-28 08:42:00,32.0,19.8,30.22,West,265,4.0,15.0,60,0.00,,,0.00,meteohub,2013-11-28 13:42:00,
2013-11-28 08:44:00,32.0,19.8,30.22,NW,309,8.0,15.0,60,0.00,,,0.00,meteohub,2013-11-28 13:44:00,
2013-11-28 08:45:00,32.0,19.8,30.22,WNW,285,12.0,15.0,60,0.00,,,0.00,meteohub,2013-11-28 13:45:00,
2013-11-28 08:46:00,32.0,19.8,30.22,West,281,11.0,16.0,60,0.00,,,0.00,meteohub,2013-11-28 13:46:00,
2013-11-28 08:47:00,32.2,19.9,30.22,WNW,291,9.0,16.0,60,0.00,,,0.00,meteohub,2013-11-28 13:47:00,
2013-11-28 08:48:00,32.2,19.9,30.22,WNW,291,7.0,16.0,60,0.00,,,0.00,meteohub,2013-11-28 13:48:00,
2013-11-28 08:49:00,32.4,20.5,30.22,WSW,252,8.0,16.0,61,0.00,,,0.00,meteohub,2013-11-28 13:49:00,
2013-11-28 08:51:00,32.4,19.9,30.22,WNW,301,5.0,17.0,60,0.00,,,0.00,meteohub,2013-11-28 13:51:00,
2013-11-28 08:52:00,32.4,19.9,30.22,West,278,8.0,17.0,60,0.00,,,0.00,meteohub,2013-11-28 13:52:00,
2013-11-28 08:53:00,32.4,19.9,30.22,NW,306,10.0,17.0,60,0.00,,,0.00,meteohub,2013-11-28 13:53:00,
2013-11-28 08:55:00,32.5,20.1,30.22,WNW,294,9.0,17.0,60,0.00,,,0.00,meteohub,2013-11-28 13:55:00,
2013-11-28 08:56:00,32.5,20.1,30.22,WNW,302,8.0,17.0,60,0.00,,,0.00,meteohub,2013-11-28 13:56:00,
2013-11-28 08:57:00,32.5,20.1,30.22,WNW,301,12.0,17.0,60,0.00,,,0.00,meteohub,2013-11-28 13:57:00,
2013-11-28 08:58:00,32.5,19.8,30.22,WNW,288,8.0,17.0,59,0.00,,,0.00,meteohub,2013-11-28 13:58:00,
2013-11-28 09:00:00,32.5,19.8,30.23,WNW,298,8.0,17.0,59,0.00,,,0.00,meteohub,2013-11-28 14:00:00,
2013-11-28 09:01:00,32.5,19.8,30.23,WNW,288,8.0,19.0,59,0.00,,,0.00,meteohub,2013-11-28 14:01:00,
2013-11-28 09:02:00,32.5,20.1,30.23,WNW,302,8.0,19.0,60,0.00,,,0.00,meteohub,2013-11-28 14:02:00,
2013-11-28 09:03:00,32.5,19.8,30.23,SW,220,4.0,19.0,59,0.00,,,0.00,meteohub,2013-11-28 14:03:00,
2013-11-28 09:06:00,32.7,19.6,30.23,WNW,295,3.0,19.0,58,0.00,,,0.00,meteohub,2013-11-28 14:06:00,
2013-11-28 09:07:00,32.7,19.6,30.23,WNW,283,11.0,19.0,58,0.00,,,0.00,meteohub,2013-11-28 14:07:00,
2013-11-28 09:08:00,32.7,19.6,30.23,NW,315,8.0,19.0,58,0.00,,,0.00,meteohub,2013-11-28 14:08:00,
2013-11-28 09:09:00,32.7,19.6,30.23,WNW,296,17.0,19.0,58,0.00,,,0.00,meteohub,2013-11-28 14:09:00,
2013-11-28 09:11:00,32.9,19.8,30.23,NW,306,3.0,24.0,58,0.00,,,0.00,meteohub,2013-11-28 14:11:00,
2013-11-28 09:13:00,32.9,19.8,30.23,WSW,258,6.0,24.0,58,0.00,,,0.00,meteohub,2013-11-28 14:13:00,
2013-11-28 09:14:00,33.1,19.9,30.23,West,281,9.0,24.0,58,0.00,,,0.00,meteohub,2013-11-28 14:14:00,
2013-11-28 09:15:00,33.1,19.9,30.23,NW,323,4.0,24.0,58,0.00,,,0.00,meteohub,2013-11-28 14:15:00,
2013-11-28 09:17:00,33.1,19.6,30.23,WNW,283,9.0,24.0,57,0.00,,,0.00,meteohub,2013-11-28 14:17:00,
2013-11-28 09:18:00,33.3,20.1,30.23,WNW,295,9.0,24.0,58,0.00,,,0.00,meteohub,2013-11-28 14:18:00,
2013-11-28 09:19:00,33.3,20.1,30.23,WNW,288,7.0,24.0,58,0.00,,,0.00,meteohub,2013-11-28 14:19:00,
2013-11-28 09:20:00,33.3,20.1,30.23,WNW,300,12.0,24.0,58,0.00,,,0.00,meteohub,2013-11-28 14:20:00,
2013-11-28 09:22:00,33.4,19.8,30.23,WNW,286,8.0,24.0,57,0.00,,,0.00,meteohub,2013-11-28 14:22:00,
2013-11-28 09:23:00,33.4,19.4,30.23,WNW,286,11.0,24.0,56,0.00,,,0.00,meteohub,2013-11-28 14:23:00,
2013-11-28 09:24:00,33.4,19.4,30.23,WNW,292,15.0,24.0,56,0.00,,,0.00,meteohub,2013-11-28 14:24:00,
2013-11-28 09:25:00,33.3,19.2,30.23,SW,236,7.0,24.0,56,0.00,,,0.00,meteohub,2013-11-28 14:25:00,
2013-11-28 09:27:00,33.4,19.4,30.23,WNW,301,11.0,19.0,56,0.00,,,0.00,meteohub,2013-11-28 14:27:00,
2013-11-28 09:29:00,33.4,19.4,30.23,SW,229,12.0,19.0,56,0.00,,,0.00,meteohub,2013-11-28 14:29:00,
2013-11-28 09:30:00,33.4,19.4,30.23,WNW,299,11.0,19.0,56,0.00,,,0.00,meteohub,2013-11-28 14:30:00,
2013-11-28 09:31:00,33.4,19.4,30.23,West,269,8.0,20.0,56,0.00,,,0.00,meteohub,2013-11-28 14:31:00,
2013-11-28 09:32:00,33.6,19.9,30.23,WNW,289,7.0,20.0,57,0.00,,,0.00,meteohub,2013-11-28 14:32:00,
2013-11-28 09:34:00,33.6,19.6,30.23,WNW,288,8.0,20.0,56,0.00,,,0.00,meteohub,2013-11-28 14:34:00,
2013-11-28 09:35:00,33.8,19.4,30.23,West,265,3.0,20.0,55,0.00,,,0.00,meteohub,2013-11-28 14:35:00,
2013-11-28 09:36:00,33.8,19.4,30.23,West,278,8.0,20.0,55,0.00,,,0.00,meteohub,2013-11-28 14:36:00,
2013-11-28 09:38:00,33.8,18.9,30.23,West,262,9.0,20.0,54,0.00,,,0.00,meteohub,2013-11-28 14:38:00,
2013-11-28 09:39:00,33.6,18.7,30.23,WSW,254,7.0,20.0,54,0.00,,,0.00,meteohub,2013-11-28 14:39:00,
2013-11-28 09:40:00,33.6,18.3,30.23,West,277,4.0,20.0,53,0.00,,,0.00,meteohub,2013-11-28 14:40:00,
2013-11-28 09:41:00,33.6,18.3,30.24,WNW,283,7.0,20.0,53,0.00,,,0.00,meteohub,2013-11-28 14:41:00,
2013-11-28 09:42:00,33.6,18.3,30.24,WNW,295,14.0,20.0,53,0.00,,,0.00,meteohub,2013-11-28 14:42:00,
2013-11-28 09:44:00,33.6,18.3,30.24,WNW,285,3.0,20.0,53,0.00,,,0.00,meteohub,2013-11-28 14:44:00,
2013-11-28 09:45:00,33.6,18.3,30.24,West,269,8.0,20.0,53,0.00,,,0.00,meteohub,2013-11-28 14:45:00,
2013-11-28 09:46:00,33.6,18.3,30.24,West,263,7.0,25.0,53,0.00,,,0.00,meteohub,2013-11-28 14:46:00,
2013-11-28 09:47:00,33.8,18.9,30.24,NW,324,3.0,25.0,54,0.00,,,0.00,meteohub,2013-11-28 14:47:00,
2013-11-28 09:50:00,34.0,18.7,30.24,NW,309,13.0,25.0,53,0.00,,,0.00,meteohub,2013-11-28 14:50:00,
2013-11-28 09:51:00,34.0,18.7,30.24,NW,307,8.0,25.0,53,0.00,,,0.00,meteohub,2013-11-28 14:51:00,
2013-11-28 09:52:00,34.0,18.7,30.24,WNW,286,8.0,25.0,53,0.00,,,0.00,meteohub,2013-11-28 14:52:00,
2013-11-28 09:53:00,34.0,18.7,30.24,WNW,303,4.0,25.0,53,0.00,,,0.00,meteohub,2013-11-28 14:53:00,
2013-11-28 09:55:00,34.2,19.2,30.24,WSW,251,7.0,25.0,54,0.00,,,0.00,meteohub,2013-11-28 14:55:00,
2013-11-28 09:56:00,34.2,18.9,30.24,East,82,3.0,25.0,53,0.00,,,0.00,meteohub,2013-11-28 14:56:00,
2013-11-28 09:57:00,34.2,18.9,30.23,WNW,291,7.0,25.0,53,0.00,,,0.00,meteohub,2013-11-28 14:57:00,
2013-11-28 09:58:00,34.2,18.9,30.24,WSW,252,4.0,25.0,53,0.00,,,0.00,meteohub,2013-11-28 14:58:00,
2013-11-28 10:01:00,34.3,19.4,30.24,WNW,288,5.0,16.0,54,0.00,,,0.00,meteohub,2013-11-28 15:01:00,
2013-11-28 10:02:00,34.3,19.4,30.24,WNW,295,13.0,16.0,54,0.00,,,0.00,meteohub,2013-11-28 15:02:00,
2013-11-28 10:03:00,34.3,19.4,30.24,WNW,292,9.0,16.0,54,0.00,,,0.00,meteohub,2013-11-28 15:03:00,
2013-11-28 10:06:00,34.2,18.9,30.25,West,277,9.0,19.0,53,0.00,,,0.00,meteohub,2013-11-28 15:06:00,
2013-11-28 10:07:00,34.2,18.9,30.25,WNW,294,14.0,19.0,53,0.00,,,0.00,meteohub,2013-11-28 15:07:00,
2013-11-28 10:08:00,34.2,18.9,30.25,WNW,285,8.0,19.0,53,0.00,,,0.00,meteohub,2013-11-28 15:08:00,
2013-11-28 10:09:00,34.3,19.0,30.25,WNW,288,11.0,19.0,53,0.00,,,0.00,meteohub,2013-11-28 15:09:00,
2013-11-28 10:12:00,34.2,18.9,30.25,West,279,9.0,19.0,53,0.00,,,0.00,meteohub,2013-11-28 15:12:00,
2013-11-28 10:13:00,34.2,18.9,30.25,WNW,284,15.0,19.0,53,0.00,,,0.00,meteohub,2013-11-28 15:13:00,
2013-11-28 10:15:00,34.2,18.9,30.25,WNW,290,12.0,19.0,53,0.00,,,0.00,meteohub,2013-11-28 15:15:00,
2013-11-28 10:17:00,34.3,19.0,30.25,WSW,258,9.0,19.0,53,0.00,,,0.00,meteohub,2013-11-28 15:17:00,
2013-11-28 10:18:00,34.3,19.0,30.25,WNW,286,11.0,19.0,53,0.00,,,0.00,meteohub,2013-11-28 15:18:00,
2013-11-28 10:19:00,34.3,19.0,30.25,WSW,239,9.0,19.0,53,0.00,,,0.00,meteohub,2013-11-28 15:19:00,
2013-11-28 10:20:00,34.3,19.0,30.25,West,279,11.0,19.0,53,0.00,,,0.00,meteohub,2013-11-28 15:20:00,
2013-11-28 10:21:00,34.5,19.2,30.25,WNW,290,10.0,19.0,53,0.00,,,0.00,meteohub,2013-11-28 15:21:00,
2013-11-28 10:23:00,34.5,19.2,30.26,WNW,300,10.0,19.0,53,0.00,,,0.00,meteohub,2013-11-28 15:23:00,
2013-11-28 10:24:00,34.5,19.2,30.26,NW,313,8.0,19.0,53,0.00,,,0.00,meteohub,2013-11-28 15:24:00,
2013-11-28 10:25:00,34.5,19.2,30.25,WNW,302,12.0,19.0,53,0.00,,,0.00,meteohub,2013-11-28 15:25:00,
2013-11-28 10:26:00,34.3,19.0,30.25,NW,313,8.0,19.0,53,0.00,,,0.00,meteohub,2013-11-28 15:26:00,
2013-11-28 10:28:00,34.5,19.2,30.25,NW,311,5.0,19.0,53,0.00,,,0.00,meteohub,2013-11-28 15:28:00,
2013-11-28 10:29:00,34.5,19.2,30.25,WNW,288,8.0,19.0,53,0.00,,,0.00,meteohub,2013-11-28 15:29:00,
2013-11-28 10:30:00,34.5,19.2,30.25,WNW,288,10.0,19.0,53,0.00,,,0.00,meteohub,2013-11-28 15:30:00,
2013-11-28 10:33:00,34.7,18.9,30.25,West,270,4.0,23.0,52,0.00,,,0.00,meteohub,2013-11-28 15:33:00,
2013-11-28 10:34:00,34.9,19.0,30.25,West,270,10.0,23.0,52,0.00,,,0.00,meteohub,2013-11-28 15:34:00,
2013-11-28 10:35:00,34.9,19.0,30.25,WNW,296,5.0,23.0,52,0.00,,,0.00,meteohub,2013-11-28 15:35:00,
2013-11-28 10:37:00,34.9,18.5,30.25,NW,306,9.0,23.0,51,0.00,,,0.00,meteohub,2013-11-28 15:37:00,
2013-11-28 10:39:00,34.9,18.5,30.25,WNW,288,11.0,23.0,51,0.00,,,0.00,meteohub,2013-11-28 15:39:00,
2013-11-28 10:40:00,34.9,19.0,30.25,North,0,2.0,23.0,52,0.00,,,0.00,meteohub,2013-11-28 15:40:00,
2013-11-28 10:42:00,35.1,18.7,30.25,WSW,250,4.0,18.0,51,0.00,,,0.00,meteohub,2013-11-28 15:42:00,
2013-11-28 10:44:00,35.1,19.2,30.26,West,269,10.0,18.0,52,0.00,,,0.00,meteohub,2013-11-28 15:44:00,
2013-11-28 10:45:00,35.2,19.4,30.25,West,264,4.0,18.0,52,0.00,,,0.00,meteohub,2013-11-28 15:45:00,
2013-11-28 10:46:00,35.2,18.9,30.25,WNW,290,4.0,18.0,51,0.00,,,0.00,meteohub,2013-11-28 15:46:00,
2013-11-28 10:47:00,35.2,18.9,30.25,WNW,284,9.0,18.0,51,0.00,,,0.00,meteohub,2013-11-28 15:47:00,
2013-11-28 10:50:00,35.4,19.0,30.25,West,260,6.0,18.0,51,0.00,,,0.00,meteohub,2013-11-28 15:50:00,
2013-11-28 10:51:00,35.6,18.9,30.25,WNW,288,4.0,18.0,50,0.00,,,0.00,meteohub,2013-11-28 15:51:00,
2013-11-28 10:52:00,35.6,18.9,30.25,SSE,151,3.0,18.0,50,0.00,,,0.00,meteohub,2013-11-28 15:52:00,
2013-11-28 10:53:00,35.6,18.9,30.25,West,279,3.0,18.0,50,0.00,,,0.00,meteohub,2013-11-28 15:53:00,
2013-11-28 10:55:00,35.8,18.5,30.25,NE,43,4.0,18.0,49,0.00,,,0.00,meteohub,2013-11-28 15:55:00,
2013-11-28 10:56:00,36.0,18.7,30.25,NW,304,7.0,20.0,49,0.00,,,0.00,meteohub,2013-11-28 15:56:00,
2013-11-28 10:57:00,36.0,18.7,30.25,West,274,13.0,20.0,49,0.00,,,0.00,meteohub,2013-11-28 15:57:00,
2013-11-28 10:59:00,36.0,18.7,30.25,West,279,11.0,20.0,49,0.00,,,0.00,meteohub,2013-11-28 15:59:00,
2013-11-28 11:00:00,36.0,18.1,30.25,WSW,253,10.0,20.0,48,0.00,,,0.00,meteohub,2013-11-28 16:00:00,
2013-11-28 11:01:00,36.0,18.7,30.25,West,280,6.0,20.0,49,0.00,,,0.00,meteohub,2013-11-28 16:01:00,
2013-11-28 11:02:00,36.0,18.7,30.25,West,277,7.0,20.0,49,0.00,,,0.00,meteohub,2013-11-28 16:02:00,
2013-11-28 11:05:00,35.8,19.4,30.25,NW,316,10.0,20.0,51,0.00,,,0.00,meteohub,2013-11-28 16:05:00,
2013-11-28 11:06:00,35.8,19.4,30.25,West,279,9.0,20.0,51,0.00,,,0.00,meteohub,2013-11-28 16:06:00,
2013-11-28 11:07:00,35.8,19.4,30.25,West,274,10.0,20.0,51,0.00,,,0.00,meteohub,2013-11-28 16:07:00,
2013-11-28 11:08:00,35.6,19.2,30.25,NW,321,18.0,20.0,51,0.00,,,0.00,meteohub,2013-11-28 16:08:00,
2013-11-28 11:09:00,35.4,19.0,30.25,WNW,293,15.0,20.0,51,0.00,,,0.00,meteohub,2013-11-28 16:09:00,
2013-11-28 11:10:00,35.4,19.0,30.25,WNW,283,11.0,19.0,51,0.00,,,0.00,meteohub,2013-11-28 16:10:00,
2013-11-28 11:11:00,35.4,19.0,30.25,West,270,6.0,19.0,51,0.00,,,0.00,meteohub,2013-11-28 16:11:00,
2013-11-28 11:12:00,35.4,19.0,30.25,WSW,257,4.0,19.0,51,0.00,,,0.00,meteohub,2013-11-28 16:12:00,
2013-11-28 11:13:00,35.4,19.0,30.25,WNW,303,7.0,19.0,51,0.00,,,0.00,meteohub,2013-11-28 16:13:00,
2013-11-28 11:14:00,35.4,19.0,30.25,WNW,291,8.0,19.0,51,0.00,,,0.00,meteohub,2013-11-28 16:14:00,
2013-11-28 11:16:00,35.4,19.0,30.26,WNW,296,9.0,19.0,51,0.00,,,0.00,meteohub,2013-11-28 16:16:00,
2013-11-28 11:17:00,35.4,19.0,30.26,WNW,298,5.0,19.0,51,0.00,,,0.00,meteohub,2013-11-28 16:17:00,
2013-11-28 11:19:00,35.8,19.4,30.26,West,267,9.0,19.0,51,0.00,,,0.00,meteohub,2013-11-28 16:19:00,
2013-11-28 11:20:00,35.8,19.0,30.26,WNW,284,10.0,19.0,50,0.00,,,0.00,meteohub,2013-11-28 16:20:00,
2013-11-28 11:21:00,35.8,19.0,30.27,NW,321,8.0,19.0,50,0.00,,,0.00,meteohub,2013-11-28 16:21:00,
2013-11-28 11:22:00,35.8,19.0,30.27,WNW,293,2.0,19.0,50,0.00,,,0.00,meteohub,2013-11-28 16:22:00,
2013-11-28 11:23:00,35.8,19.0,30.27,WNW,292,9.0,19.0,50,0.00,,,0.00,meteohub,2013-11-28 16:23:00,
2013-11-28 11:25:00,35.8,18.0,30.27,NW,309,10.0,19.0,48,0.00,,,0.00,meteohub,2013-11-28 16:25:00,
2013-11-28 11:26:00,35.8,18.5,30.26,West,277,6.0,17.0,49,0.00,,,0.00,meteohub,2013-11-28 16:26:00,
2013-11-28 11:27:00,35.8,18.5,30.27,NW,304,12.0,17.0,49,0.00,,,0.00,meteohub,2013-11-28 16:27:00,
2013-11-28 11:28:00,35.8,18.0,30.27,West,280,9.0,17.0,48,0.00,,,0.00,meteohub,2013-11-28 16:28:00,
2013-11-28 11:29:00,35.8,18.5,30.27,WNW,294,12.0,17.0,49,0.00,,,0.00,meteohub,2013-11-28 16:29:00,
2013-11-28 11:30:00,35.8,18.0,30.27,NNW,331,10.0,17.0,48,0.00,,,0.00,meteohub,2013-11-28 16:30:00,
2013-11-28 11:32:00,35.8,18.0,30.27,WNW,302,4.0,17.0,48,0.00,,,0.00,meteohub,2013-11-28 16:32:00,
2013-11-28 11:33:00,36.0,18.1,30.27,West,277,2.0,17.0,48,0.00,,,0.00,meteohub,2013-11-28 16:33:00,
2013-11-28 11:34:00,36.0,18.7,30.27,West,276,8.0,17.0,49,0.00,,,0.00,meteohub,2013-11-28 16:34:00,
2013-11-28 11:35:00,36.0,18.1,30.27,WNW,284,3.0,17.0,48,0.00,,,0.00,meteohub,2013-11-28 16:35:00,
2013-11-28 11:36:00,36.0,18.1,30.27,West,281,15.0,17.0,48,0.00,,,0.00,meteohub,2013-11-28 16:36:00,
2013-11-28 11:37:00,36.0,18.7,30.27,WNW,298,8.0,17.0,49,0.00,,,0.00,meteohub,2013-11-28 16:37:00,
2013-11-28 11:38:00,36.0,18.7,30.27,West,270,9.0,17.0,49,0.00,,,0.00,meteohub,2013-11-28 16:38:00,
2013-11-28 11:39:00,36.0,18.7,30.27,WNW,294,14.0,17.0,49,0.00,,,0.00,meteohub,2013-11-28 16:39:00,
2013-11-28 11:41:00,36.1,19.2,30.27,West,259,10.0,17.0,50,0.00,,,0.00,meteohub,2013-11-28 16:41:00,
2013-11-28 11:42:00,36.3,19.9,30.26,West,259,8.0,17.0,51,0.00,,,0.00,meteohub,2013-11-28 16:42:00,
2013-11-28 11:43:00,36.3,19.9,30.27,WNW,297,4.0,17.0,51,0.00,,,0.00,meteohub,2013-11-28 16:43:00,
2013-11-28 11:44:00,36.5,19.6,30.27,NNW,330,10.0,17.0,50,0.00,,,0.00,meteohub,2013-11-28 16:44:00,
2013-11-28 11:46:00,36.5,19.2,30.27,WNW,290,11.0,15.0,49,0.00,,,0.00,meteohub,2013-11-28 16:46:00,
2013-11-28 11:47:00,36.5,19.2,30.27,WNW,300,8.0,15.0,49,0.00,,,0.00,meteohub,2013-11-28 16:47:00,
2013-11-28 11:48:00,36.5,19.2,30.26,WNW,294,14.0,15.0,49,0.00,,,0.00,meteohub,2013-11-28 16:48:00,
2013-11-28 11:49:00,36.5,19.2,30.26,West,276,9.0,15.0,49,0.00,,,0.00,meteohub,2013-11-28 16:49:00,
2013-11-28 11:50:00,36.3,19.0,30.27,WNW,300,10.0,15.0,49,0.00,,,0.00,meteohub,2013-11-28 16:50:00,
2013-11-28 11:52:00,36.3,19.0,30.27,WNW,285,7.0,27.0,49,0.00,,,0.00,meteohub,2013-11-28 16:52:00,
2013-11-28 11:53:00,36.1,18.3,30.27,West,277,10.0,27.0,48,0.00,,,0.00,meteohub,2013-11-28 16:53:00,
2013-11-28 11:55:00,36.1,18.3,30.27,WNW,294,8.0,27.0,48,0.00,,,0.00,meteohub,2013-11-28 16:55:00,
2013-11-28 11:57:00,36.1,18.3,30.27,WNW,290,8.0,27.0,48,0.00,,,0.00,meteohub,2013-11-28 16:57:00,
2013-11-28 11:59:00,36.1,18.3,30.27,NW,305,11.0,27.0,48,0.00,,,0.00,meteohub,2013-11-28 16:59:00,
2013-11-28 12:01:00,36.1,18.3,30.27,WNW,293,9.0,18.0,48,0.00,,,0.00,meteohub,2013-11-28 17:01:00,
2013-11-28 12:02:00,36.0,17.6,30.27,WNW,288,9.0,18.0,47,0.00,,,0.00,meteohub,2013-11-28 17:02:00,
2013-11-28 12:03:00,36.0,17.6,30.27,West,277,6.0,18.0,47,0.00,,,0.00,meteohub,2013-11-28 17:03:00,
2013-11-28 12:04:00,36.0,18.1,30.27,WNW,295,8.0,18.0,48,0.00,,,0.00,meteohub,2013-11-28 17:04:00,
2013-11-28 12:05:00,36.0,18.1,30.27,WNW,289,3.0,17.0,48,0.00,,,0.00,meteohub,2013-11-28 17:05:00,
2013-11-28 12:07:00,36.1,18.9,30.27,West,278,4.0,17.0,49,0.00,,,0.00,meteohub,2013-11-28 17:07:00,
2013-11-28 12:08:00,36.3,19.0,30.27,West,269,6.0,17.0,49,0.00,,,0.00,meteohub,2013-11-28 17:08:00,
2013-11-28 12:09:00,36.3,19.0,30.27,WSW,250,7.0,17.0,49,0.00,,,0.00,meteohub,2013-11-28 17:09:00,
2013-11-28 12:11:00,36.7,19.4,30.27,WNW,288,10.0,17.0,49,0.00,,,0.00,meteohub,2013-11-28 17:11:00,
2013-11-28 12:12:00,36.5,18.1,30.27,WNW,286,12.0,17.0,47,0.00,,,0.00,meteohub,2013-11-28 17:12:00,
2013-11-28 12:14:00,36.3,19.0,30.27,WNW,288,3.0,17.0,49,0.00,,,0.00,meteohub,2013-11-28 17:14:00,
2013-11-28 12:15:00,36.3,19.0,30.27,WNW,302,12.0,17.0,49,0.00,,,0.00,meteohub,2013-11-28 17:15:00,
2013-11-28 12:16:00,36.5,18.7,30.27,WNW,296,10.0,19.0,48,0.00,,,0.00,meteohub,2013-11-28 17:16:00,
2013-11-28 12:17:00,36.5,18.7,30.27,WNW,298,15.0,19.0,48,0.00,,,0.00,meteohub,2013-11-28 17:17:00,
2013-11-28 12:19:00,36.5,18.1,30.27,NW,319,3.0,19.0,47,0.00,,,0.00,meteohub,2013-11-28 17:19:00,
2013-11-28 12:20:00,36.5,18.1,30.27,WNW,288,15.0,19.0,47,0.00,,,0.00,meteohub,2013-11-28 17:20:00,
2013-11-28 12:21:00,36.3,18.0,30.27,West,275,4.0,19.0,47,0.00,,,0.00,meteohub,2013-11-28 17:21:00,
2013-11-28 12:23:00,36.3,18.0,30.27,WSW,249,11.0,19.0,47,0.00,,,0.00,meteohub,2013-11-28 17:23:00,
2013-11-28 12:24:00,36.3,18.0,30.27,WNW,303,10.0,19.0,47,0.00,,,0.00,meteohub,2013-11-28 17:24:00,
2013-11-28 12:25:00,36.3,18.0,30.27,West,281,7.0,19.0,47,0.00,,,0.00,meteohub,2013-11-28 17:25:00,
2013-11-28 12:27:00,36.1,17.4,30.27,WNW,286,6.0,19.0,46,0.00,,,0.00,meteohub,2013-11-28 17:27:00,
2013-11-28 12:30:00,36.3,18.5,30.27,WNW,289,8.0,19.0,48,0.00,,,0.00,meteohub,2013-11-28 17:30:00,
2013-11-28 12:33:00,36.3,18.0,30.27,WNW,283,10.0,17.0,47,0.00,,,0.00,meteohub,2013-11-28 17:33:00,
2013-11-28 12:35:00,36.3,18.0,30.27,WNW,283,13.0,17.0,47,0.00,,,0.00,meteohub,2013-11-28 17:35:00,
2013-11-28 12:37:00,36.3,18.0,30.27,WNW,290,8.0,18.0,47,0.00,,,0.00,meteohub,2013-11-28 17:37:00,
2013-11-28 12:38:00,36.3,18.0,30.27,WNW,288,8.0,18.0,47,0.00,,,0.00,meteohub,2013-11-28 17:38:00,
2013-11-28 12:40:00,36.3,17.6,30.27,West,281,6.0,18.0,46,0.00,,,0.00,meteohub,2013-11-28 17:40:00,
2013-11-28 12:41:00,36.3,18.0,30.27,WNW,284,13.0,18.0,47,0.00,,,0.00,meteohub,2013-11-28 17:41:00,
2013-11-28 12:42:00,36.3,17.6,30.27,West,269,8.0,18.0,46,0.00,,,0.00,meteohub,2013-11-28 17:42:00,
2013-11-28 12:45:00,36.7,18.3,30.27,West,280,9.0,18.0,47,0.00,,,0.00,meteohub,2013-11-28 17:45:00,
2013-11-28 12:46:00,36.7,18.3,30.27,WNW,284,7.0,18.0,47,0.00,,,0.00,meteohub,2013-11-28 17:46:00,
2013-11-28 12:47:00,36.7,18.3,30.27,West,274,13.0,18.0,47,0.00,,,0.00,meteohub,2013-11-28 17:47:00,
2013-11-28 12:48:00,36.7,17.4,30.27,WNW,300,8.0,18.0,45,0.00,,,0.00,meteohub,2013-11-28 17:48:00,
2013-11-28 12:50:00,36.7,17.8,30.27,WNW,300,9.0,18.0,46,0.00,,,0.00,meteohub,2013-11-28 17:50:00,
2013-11-28 12:51:00,36.7,18.3,30.27,NW,319,19.0,19.0,47,0.00,,,0.00,meteohub,2013-11-28 17:51:00,
2013-11-28 12:52:00,36.5,17.6,30.27,WNW,292,2.0,17.0,46,0.00,,,0.00,meteohub,2013-11-28 17:52:00,
2013-11-28 12:53:00,36.7,17.8,30.27,West,268,8.0,17.0,46,0.00,,,0.00,meteohub,2013-11-28 17:53:00,
2013-11-28 12:55:00,36.7,17.8,30.27,West,279,3.0,19.0,46,0.00,,,0.00,meteohub,2013-11-28 17:55:00,
2013-11-28 12:56:00,36.7,17.8,30.27,WNW,291,13.0,19.0,46,0.00,,,0.00,meteohub,2013-11-28 17:56:00,
2013-11-28 12:58:00,36.9,18.0,30.27,West,265,8.0,19.0,46,0.00,,,0.00,meteohub,2013-11-28 17:58:00,
2013-11-28 13:01:00,37.0,18.1,30.27,NW,311,4.0,19.0,46,0.00,,,0.00,meteohub,2013-11-28 18:01:00,
2013-11-28 13:02:00,37.0,18.1,30.27,WNW,286,4.0,19.0,46,0.00,,,0.00,meteohub,2013-11-28 18:02:00,
2013-11-28 13:03:00,37.0,18.1,30.27,West,263,4.0,19.0,46,0.00,,,0.00,meteohub,2013-11-28 18:03:00,
2013-11-28 13:04:00,37.0,18.1,30.27,West,274,6.0,19.0,46,0.00,,,0.00,meteohub,2013-11-28 18:04:00,
2013-11-28 13:07:00,37.2,17.8,30.27,West,268,6.0,19.0,45,0.00,,,0.00,meteohub,2013-11-28 18:07:00,
2013-11-28 13:08:00,37.2,17.8,30.27,WNW,285,2.0,19.0,45,0.00,,,0.00,meteohub,2013-11-28 18:08:00,
2013-11-28 13:09:00,37.2,18.3,30.27,West,267,4.0,19.0,46,0.00,,,0.00,meteohub,2013-11-28 18:09:00,
2013-11-28 13:12:00,37.6,18.1,30.27,West,274,12.0,13.0,45,0.00,,,0.00,meteohub,2013-11-28 18:12:00,
2013-11-28 13:14:00,37.2,17.8,30.27,NNW,331,9.0,13.0,45,0.00,,,0.00,meteohub,2013-11-28 18:14:00,
2013-11-28 13:16:00,37.2,18.3,30.27,NW,317,6.0,16.0,46,0.00,,,0.00,meteohub,2013-11-28 18:16:00,
2013-11-28 13:17:00,37.2,17.8,30.27,WNW,293,8.0,16.0,45,0.00,,,0.00,meteohub,2013-11-28 18:17:00,
2013-11-28 13:19:00,37.0,17.6,30.27,WNW,294,2.0,16.0,45,0.00,,,0.00,meteohub,2013-11-28 18:19:00,
2013-11-28 13:20:00,37.0,17.6,30.27,WNW,290,10.0,16.0,45,0.00,,,0.00,meteohub,2013-11-28 18:20:00,
2013-11-28 13:22:00,37.0,17.6,30.27,NW,306,9.0,16.0,45,0.00,,,0.00,meteohub,2013-11-28 18:22:00,
2013-11-28 13:23:00,37.0,17.6,30.27,West,281,9.0,16.0,45,0.00,,,0.00,meteohub,2013-11-28 18:23:00,
2013-11-28 13:24:00,37.0,17.6,30.27,WNW,285,8.0,16.0,45,0.00,,,0.00,meteohub,2013-11-28 18:24:00,
2013-11-28 13:25:00,37.0,17.6,30.27,WNW,296,8.0,16.0,45,0.00,,,0.00,meteohub,2013-11-28 18:25:00,
2013-11-28 13:27:00,37.0,17.6,30.28,West,269,6.0,16.0,45,0.00,,,0.00,meteohub,2013-11-28 18:27:00,
2013-11-28 13:28:00,37.2,18.3,30.28,NW,307,7.0,16.0,46,0.00,,,0.00,meteohub,2013-11-28 18:28:00,
2013-11-28 13:29:00,37.2,17.8,30.28,WNW,290,5.0,16.0,45,0.00,,,0.00,meteohub,2013-11-28 18:29:00,
2013-11-28 13:30:00,37.2,17.8,30.28,WNW,295,3.0,16.0,45,0.00,,,0.00,meteohub,2013-11-28 18:30:00,
2013-11-28 13:31:00,37.2,18.3,30.28,WNW,286,6.0,16.0,46,0.00,,,0.00,meteohub,2013-11-28 18:31:00,
2013-11-28 13:32:00,37.4,18.5,30.28,West,279,9.0,16.0,46,0.00,,,0.00,meteohub,2013-11-28 18:32:00,
2013-11-28 13:34:00,37.6,18.1,30.28,WNW,287,1.0,16.0,45,0.00,,,0.00,meteohub,2013-11-28 18:34:00,
2013-11-28 13:35:00,37.4,17.4,30.28,WNW,294,7.0,16.0,44,0.00,,,0.00,meteohub,2013-11-28 18:35:00,
2013-11-28 13:36:00,37.4,17.4,30.28,WNW,292,5.0,16.0,44,0.00,,,0.00,meteohub,2013-11-28 18:36:00,
2013-11-28 13:37:00,37.2,17.2,30.28,WNW,286,6.0,16.0,44,0.00,,,0.00,meteohub,2013-11-28 18:37:00,
2013-11-28 13:38:00,37.2,17.2,30.28,NW,306,10.0,16.0,44,0.00,,,0.00,meteohub,2013-11-28 18:38:00,
2013-11-28 13:39:00,37.2,17.8,30.28,WNW,286,3.0,16.0,45,0.00,,,0.00,meteohub,2013-11-28 18:39:00,
2013-11-28 13:40:00,37.2,17.2,30.28,WNW,298,2.0,16.0,44,0.00,,,0.00,meteohub,2013-11-28 18:40:00,
2013-11-28 13:41:00,37.4,18.0,30.28,WNW,286,7.0,17.0,45,0.00,,,0.00,meteohub,2013-11-28 18:41:00,
2013-11-28 13:42:00,37.6,17.6,30.28,West,267,3.0,17.0,44,0.00,,,0.00,meteohub,2013-11-28 18:42:00,
2013-11-28 13:43:00,37.6,17.6,30.28,WNW,297,4.0,17.0,44,0.00,,,0.00,meteohub,2013-11-28 18:43:00,
2013-11-28 13:44:00,37.6,17.6,30.28,West,275,3.0,17.0,44,0.00,,,0.00,meteohub,2013-11-28 18:44:00,
2013-11-28 13:45:00,37.8,17.8,30.28,NW,312,5.0,17.0,44,0.00,,,0.00,meteohub,2013-11-28 18:45:00,
2013-11-28 13:46:00,37.6,17.6,30.28,West,267,6.0,17.0,44,0.00,,,0.00,meteohub,2013-11-28 18:46:00,
2013-11-28 13:47:00,37.6,17.1,30.28,NW,304,4.0,17.0,43,0.00,,,0.00,meteohub,2013-11-28 18:47:00,
2013-11-28 13:48:00,37.6,17.6,30.28,West,276,2.0,17.0,44,0.00,,,0.00,meteohub,2013-11-28 18:48:00,
2013-11-28 13:49:00,37.6,18.1,30.28,WNW,291,9.0,17.0,45,0.00,,,0.00,meteohub,2013-11-28 18:49:00,
2013-11-28 13:50:00,37.6,17.6,30.28,WNW,285,4.0,17.0,44,0.00,,,0.00,meteohub,2013-11-28 18:50:00,
2013-11-28 13:51:00,37.6,17.6,30.28,West,273,3.0,17.0,44,0.00,,,0.00,meteohub,2013-11-28 18:51:00,
2013-11-28 13:53:00,37.8,18.3,30.28,NW,307,2.0,17.0,45,0.00,,,0.00,meteohub,2013-11-28 18:53:00,
2013-11-28 13:55:00,37.8,17.8,30.28,WNW,290,8.0,17.0,44,0.00,,,0.00,meteohub,2013-11-28 18:55:00,
2013-11-28 13:56:00,37.6,17.6,30.28,WNW,284,8.0,13.0,44,0.00,,,0.00,meteohub,2013-11-28 18:56:00,
2013-11-28 13:58:00,37.6,18.1,30.29,West,280,6.0,13.0,45,0.00,,,0.00,meteohub,2013-11-28 18:58:00,
2013-11-28 14:00:00,37.6,17.6,30.29,WNW,286,11.0,13.0,44,0.00,,,0.00,meteohub,2013-11-28 19:00:00,
2013-11-28 14:01:00,37.6,17.6,30.29,West,277,7.0,17.0,44,0.00,,,0.00,meteohub,2013-11-28 19:01:00,
2013-11-28 14:02:00,37.6,17.1,30.29,West,277,12.0,17.0,43,0.00,,,0.00,meteohub,2013-11-28 19:02:00,
2013-11-28 14:03:00,37.2,16.7,30.29,WNW,289,1.0,17.0,43,0.00,,,0.00,meteohub,2013-11-28 19:03:00,
2013-11-28 14:04:00,37.2,17.2,30.29,WNW,298,7.0,17.0,44,0.00,,,0.00,meteohub,2013-11-28 19:04:00,
2013-11-28 14:06:00,37.2,17.2,30.28,WNW,286,10.0,17.0,44,0.00,,,0.00,meteohub,2013-11-28 19:06:00,
2013-11-28 14:07:00,37.2,17.2,30.28,WNW,294,5.0,17.0,44,0.00,,,0.00,meteohub,2013-11-28 19:07:00,
2013-11-28 14:08:00,37.4,17.4,30.29,NW,308,11.0,17.0,44,0.00,,,0.00,meteohub,2013-11-28 19:08:00,
2013-11-28 14:09:00,37.4,17.4,30.29,West,272,10.0,17.0,44,0.00,,,0.00,meteohub,2013-11-28 19:09:00,
2013-11-28 14:11:00,37.4,18.0,30.29,WNW,297,8.0,17.0,45,0.00,,,0.00,meteohub,2013-11-28 19:11:00,
2013-11-28 14:12:00,37.4,18.0,30.29,WNW,298,5.0,17.0,45,0.00,,,0.00,meteohub,2013-11-28 19:12:00,
2013-11-28 14:13:00,37.6,18.1,30.29,WNW,284,8.0,17.0,45,0.00,,,0.00,meteohub,2013-11-28 19:13:00,
2013-11-28 14:14:00,37.4,18.0,30.29,WNW,285,4.0,17.0,45,0.00,,,0.00,meteohub,2013-11-28 19:14:00,
2013-11-28 14:16:00,37.6,18.1,30.29,NW,321,3.0,16.0,45,0.00,,,0.00,meteohub,2013-11-28 19:16:00,
2013-11-28 14:18:00,37.6,18.1,30.29,West,277,9.0,16.0,45,0.00,,,0.00,meteohub,2013-11-28 19:18:00,
2013-11-28 14:19:00,37.6,17.6,30.29,WNW,293,4.0,16.0,44,0.00,,,0.00,meteohub,2013-11-28 19:19:00,
2013-11-28 14:21:00,37.6,18.1,30.29,NW,306,7.0,12.0,45,0.00,,,0.00,meteohub,2013-11-28 19:21:00,
2013-11-28 14:24:00,37.8,18.3,30.30,NW,315,4.0,12.0,45,0.00,,,0.00,meteohub,2013-11-28 19:24:00,
2013-11-28 14:25:00,37.8,17.8,30.30,West,275,7.0,12.0,44,0.00,,,0.00,meteohub,2013-11-28 19:25:00,
2013-11-28 14:26:00,37.8,17.8,30.30,WNW,287,9.0,16.0,44,0.00,,,0.00,meteohub,2013-11-28 19:26:00,
2013-11-28 14:27:00,37.6,17.6,30.30,WNW,293,10.0,16.0,44,0.00,,,0.00,meteohub,2013-11-28 19:27:00,
2013-11-28 14:29:00,37.6,17.1,30.30,WNW,297,4.0,16.0,43,0.00,,,0.00,meteohub,2013-11-28 19:29:00,
2013-11-28 14:30:00,37.6,17.6,30.30,WNW,289,4.0,16.0,44,0.00,,,0.00,meteohub,2013-11-28 19:30:00,
2013-11-28 14:31:00,37.6,17.6,30.30,WNW,297,7.0,16.0,44,0.00,,,0.00,meteohub,2013-11-28 19:31:00,
2013-11-28 14:33:00,37.6,18.1,30.30,WNW,290,8.0,16.0,45,0.00,,,0.00,meteohub,2013-11-28 19:33:00,
2013-11-28 14:34:00,37.8,18.3,30.30,WNW,296,4.0,16.0,45,0.00,,,0.00,meteohub,2013-11-28 19:34:00,
2013-11-28 14:35:00,37.8,18.3,30.30,West,273,3.0,14.0,45,0.00,,,0.00,meteohub,2013-11-28 19:35:00,
2013-11-28 14:36:00,37.8,18.3,30.30,WNW,302,3.0,14.0,45,0.00,,,0.00,meteohub,2013-11-28 19:36:00,
2013-11-28 14:37:00,37.8,18.3,30.30,WNW,294,4.0,14.0,45,0.00,,,0.00,meteohub,2013-11-28 19:37:00,
2013-11-28 14:38:00,37.9,18.5,30.30,ESE,114,3.0,14.0,45,0.00,,,0.00,meteohub,2013-11-28 19:38:00,
2013-11-28 14:39:00,37.9,18.5,30.30,North,349,9.0,14.0,45,0.00,,,0.00,meteohub,2013-11-28 19:39:00,
2013-11-28 14:40:00,37.8,17.8,30.30,West,276,6.0,14.0,44,0.00,,,0.00,meteohub,2013-11-28 19:40:00,
2013-11-28 14:41:00,37.9,18.5,30.30,NNE,22,4.0,14.0,45,0.00,,,0.00,meteohub,2013-11-28 19:41:00,
2013-11-28 14:42:00,37.9,18.5,30.30,West,271,9.0,14.0,45,0.00,,,0.00,meteohub,2013-11-28 19:42:00,
2013-11-28 14:44:00,37.8,18.3,30.30,WNW,293,5.0,14.0,45,0.00,,,0.00,meteohub,2013-11-28 19:44:00,
2013-11-28 14:46:00,37.9,18.5,30.30,WNW,288,5.0,11.0,45,0.00,,,0.00,meteohub,2013-11-28 19:46:00,
2013-11-28 14:47:00,37.8,18.3,30.30,WNW,287,2.0,11.0,45,0.00,,,0.00,meteohub,2013-11-28 19:47:00,
2013-11-28 14:49:00,37.8,18.3,30.30,WSW,237,7.0,11.0,45,0.00,,,0.00,meteohub,2013-11-28 19:49:00,
2013-11-28 14:50:00,37.8,18.3,30.30,WNW,290,5.0,11.0,45,0.00,,,0.00,meteohub,2013-11-28 19:50:00,
2013-11-28 14:51:00,37.8,18.9,30.30,WNW,294,9.0,11.0,46,0.00,,,0.00,meteohub,2013-11-28 19:51:00,
2013-11-28 14:53:00,37.6,18.1,30.30,WNW,284,6.0,11.0,45,0.00,,,0.00,meteohub,2013-11-28 19:53:00,
2013-11-28 14:54:00,37.6,18.1,30.30,West,261,10.0,11.0,45,0.00,,,0.00,meteohub,2013-11-28 19:54:00,
2013-11-28 14:55:00,37.2,17.8,30.31,West,271,11.0,11.0,45,0.00,,,0.00,meteohub,2013-11-28 19:55:00,
2013-11-28 14:56:00,37.2,17.8,30.31,West,271,9.0,15.0,45,0.00,,,0.00,meteohub,2013-11-28 19:56:00,
2013-11-28 14:58:00,37.2,18.3,30.31,WNW,282,7.0,15.0,46,0.00,,,0.00,meteohub,2013-11-28 19:58:00,
2013-11-28 14:59:00,37.2,18.3,30.31,West,271,3.0,15.0,46,0.00,,,0.00,meteohub,2013-11-28 19:59:00,
2013-11-28 15:00:00,37.2,18.3,30.31,WNW,286,8.0,15.0,46,0.00,,,0.00,meteohub,2013-11-28 20:00:00,
2013-11-28 15:02:00,37.2,18.3,30.32,West,279,9.0,15.0,46,0.00,,,0.00,meteohub,2013-11-28 20:02:00,
2013-11-28 15:04:00,37.0,18.1,30.32,West,269,4.0,15.0,46,0.00,,,0.00,meteohub,2013-11-28 20:04:00,
2013-11-28 15:05:00,37.2,18.9,30.32,NW,304,7.0,15.0,47,0.00,,,0.00,meteohub,2013-11-28 20:05:00,
2013-11-28 15:06:00,37.2,18.9,30.32,WNW,286,6.0,15.0,47,0.00,,,0.00,meteohub,2013-11-28 20:06:00,
2013-11-28 15:07:00,37.2,18.9,30.32,WNW,297,2.0,15.0,47,0.00,,,0.00,meteohub,2013-11-28 20:07:00,
2013-11-28 15:10:00,37.4,19.0,30.32,WNW,296,5.0,15.0,47,0.00,,,0.00,meteohub,2013-11-28 20:10:00,
2013-11-28 15:11:00,37.6,19.2,30.32,WNW,284,1.0,13.0,47,0.00,,,0.00,meteohub,2013-11-28 20:11:00,
2013-11-28 15:12:00,37.6,18.7,30.32,West,281,3.0,13.0,46,0.00,,,0.00,meteohub,2013-11-28 20:12:00,
2013-11-28 15:13:00,37.6,18.7,30.32,WNW,293,2.0,13.0,46,0.00,,,0.00,meteohub,2013-11-28 20:13:00,
2013-11-28 15:15:00,37.6,18.7,30.32,WNW,298,5.0,13.0,46,0.00,,,0.00,meteohub,2013-11-28 20:15:00,
2013-11-28 15:16:00,37.6,18.1,30.32,WNW,296,4.0,13.0,45,0.00,,,0.00,meteohub,2013-11-28 20:16:00,
2013-11-28 15:17:00,37.6,18.1,30.32,West,279,6.0,13.0,45,0.00,,,0.00,meteohub,2013-11-28 20:17:00,
2013-11-28 15:20:00,37.4,19.6,30.32,WNW,294,4.0,12.0,48,0.00,,,0.00,meteohub,2013-11-28 20:20:00,
2013-11-28 15:21:00,37.6,19.6,30.32,NW,309,1.0,12.0,48,0.00,,,0.00,meteohub,2013-11-28 20:21:00,
2013-11-28 15:22:00,37.6,19.6,30.32,WNW,287,7.0,12.0,48,0.00,,,0.00,meteohub,2013-11-28 20:22:00,
2013-11-28 15:23:00,37.6,19.2,30.32,NW,306,10.0,12.0,47,0.00,,,0.00,meteohub,2013-11-28 20:23:00,
2013-11-28 15:26:00,37.4,19.0,30.32,West,267,4.0,13.0,47,0.00,,,0.00,meteohub,2013-11-28 20:26:00,
2013-11-28 15:27:00,37.4,19.0,30.32,West,281,3.0,13.0,47,0.00,,,0.00,meteohub,2013-11-28 20:27:00,
2013-11-28 15:28:00,37.4,19.0,30.32,WNW,288,0.0,13.0,47,0.00,,,0.00,meteohub,2013-11-28 20:28:00,
2013-11-28 15:31:00,37.4,19.0,30.32,WNW,295,5.0,13.0,47,0.00,,,0.00,meteohub,2013-11-28 20:31:00,
2013-11-28 15:32:00,37.4,19.6,30.32,WNW,299,5.0,13.0,48,0.00,,,0.00,meteohub,2013-11-28 20:32:00,
2013-11-28 15:33:00,37.2,19.4,30.32,West,281,3.0,13.0,48,0.00,,,0.00,meteohub,2013-11-28 20:33:00,
2013-11-28 15:36:00,37.2,19.4,30.32,West,266,2.0,13.0,48,0.00,,,0.00,meteohub,2013-11-28 20:36:00,
2013-11-28 15:37:00,37.2,19.4,30.32,WNW,298,3.0,13.0,48,0.00,,,0.00,meteohub,2013-11-28 20:37:00,
2013-11-28 15:38:00,37.2,19.4,30.32,WNW,298,2.0,13.0,48,0.00,,,0.00,meteohub,2013-11-28 20:38:00,
2013-11-28 15:39:00,37.2,19.8,30.32,West,275,3.0,13.0,49,0.00,,,0.00,meteohub,2013-11-28 20:39:00,
2013-11-28 15:41:00,37.2,19.8,30.32,WNW,292,8.0,12.0,49,0.00,,,0.00,meteohub,2013-11-28 20:41:00,
2013-11-28 15:42:00,37.4,19.9,30.32,NW,316,8.0,12.0,49,0.00,,,0.00,meteohub,2013-11-28 20:42:00,
2013-11-28 15:43:00,37.2,19.8,30.32,WNW,289,4.0,12.0,49,0.00,,,0.00,meteohub,2013-11-28 20:43:00,
2013-11-28 15:44:00,37.2,19.8,30.33,WNW,290,2.0,12.0,49,0.00,,,0.00,meteohub,2013-11-28 20:44:00,
2013-11-28 15:45:00,37.0,19.6,30.33,West,278,4.0,12.0,49,0.00,,,0.00,meteohub,2013-11-28 20:45:00,
2013-11-28 15:47:00,37.0,19.6,30.33,West,276,6.0,12.0,49,0.00,,,0.00,meteohub,2013-11-28 20:47:00,
2013-11-28 15:48:00,36.9,19.4,30.33,NW,315,9.0,12.0,49,0.00,,,0.00,meteohub,2013-11-28 20:48:00,
2013-11-28 15:49:00,36.9,19.4,30.33,WSW,257,10.0,12.0,49,0.00,,,0.00,meteohub,2013-11-28 20:49:00,
2013-11-28 15:50:00,36.9,19.9,30.33,WNW,297,7.0,11.0,50,0.00,,,0.00,meteohub,2013-11-28 20:50:00,
2013-11-28 15:52:00,36.9,19.9,30.33,NW,316,4.0,11.0,50,0.00,,,0.00,meteohub,2013-11-28 20:52:00,
2013-11-28 15:53:00,36.7,20.3,30.33,West,267,7.0,11.0,51,0.00,,,0.00,meteohub,2013-11-28 20:53:00,
2013-11-28 15:54:00,36.7,20.3,30.33,West,265,8.0,11.0,51,0.00,,,0.00,meteohub,2013-11-28 20:54:00,
2013-11-28 15:55:00,36.7,20.3,30.33,West,281,2.0,11.0,51,0.00,,,0.00,meteohub,2013-11-28 20:55:00,
2013-11-28 15:57:00,36.7,20.3,30.33,West,267,4.0,11.0,51,0.00,,,0.00,meteohub,2013-11-28 20:57:00,
2013-11-28 15:58:00,36.7,20.3,30.33,WNW,296,5.0,11.0,51,0.00,,,0.00,meteohub,2013-11-28 20:58:00,
2013-11-28 15:59:00,36.5,19.6,30.33,SW,235,5.0,11.0,50,0.00,,,0.00,meteohub,2013-11-28 20:59:00,
2013-11-28 16:01:00,36.7,19.8,30.33,West,269,3.0,10.0,50,0.00,,,0.00,meteohub,2013-11-28 21:01:00,
2013-11-28 16:03:00,36.7,20.3,30.34,WNW,300,2.0,10.0,51,0.00,,,0.00,meteohub,2013-11-28 21:03:00,
2013-11-28 16:04:00,36.7,20.3,30.34,West,278,4.0,10.0,51,0.00,,,0.00,meteohub,2013-11-28 21:04:00,
2013-11-28 16:05:00,36.5,19.6,30.34,West,277,7.0,10.0,50,0.00,,,0.00,meteohub,2013-11-28 21:05:00,
2013-11-28 16:06:00,36.3,19.4,30.34,WNW,289,2.0,10.0,50,0.00,,,0.00,meteohub,2013-11-28 21:06:00,
2013-11-28 16:08:00,36.3,19.9,30.34,WNW,292,3.0,10.0,51,0.00,,,0.00,meteohub,2013-11-28 21:08:00,
2013-11-28 16:09:00,36.3,19.9,30.34,West,273,4.0,10.0,51,0.00,,,0.00,meteohub,2013-11-28 21:09:00,
2013-11-28 16:10:00,36.3,19.9,30.34,WNW,288,4.0,10.0,51,0.00,,,0.00,meteohub,2013-11-28 21:10:00,
2013-11-28 16:11:00,36.3,20.3,30.34,WNW,291,2.0,9.0,52,0.00,,,0.00,meteohub,2013-11-28 21:11:00,
2013-11-28 16:12:00,36.3,20.3,30.34,West,265,3.0,9.0,52,0.00,,,0.00,meteohub,2013-11-28 21:12:00,
2013-11-28 16:14:00,36.3,20.8,30.35,West,279,2.0,9.0,53,0.00,,,0.00,meteohub,2013-11-28 21:14:00,
2013-11-28 16:15:00,36.3,20.8,30.35,WNW,284,7.0,9.0,53,0.00,,,0.00,meteohub,2013-11-28 21:15:00,
2013-11-28 16:16:00,36.3,20.8,30.35,West,270,4.0,9.0,53,0.00,,,0.00,meteohub,2013-11-28 21:16:00,
2013-11-28 16:17:00,36.1,20.7,30.35,NNW,328,4.0,9.0,53,0.00,,,0.00,meteohub,2013-11-28 21:17:00,
2013-11-28 16:20:00,36.0,20.1,30.35,WNW,288,3.0,9.0,52,0.00,,,0.00,meteohub,2013-11-28 21:20:00,
2013-11-28 16:21:00,36.0,20.1,30.35,WNW,289,3.0,9.0,52,0.00,,,0.00,meteohub,2013-11-28 21:21:00,
2013-11-28 16:22:00,36.0,20.1,30.35,WNW,287,5.0,9.0,52,0.00,,,0.00,meteohub,2013-11-28 21:22:00,
2013-11-28 16:25:00,35.8,19.9,30.35,WNW,299,3.0,9.0,52,0.00,,,0.00,meteohub,2013-11-28 21:25:00,
2013-11-28 16:26:00,35.8,20.3,30.35,WNW,284,4.0,10.0,53,0.00,,,0.00,meteohub,2013-11-28 21:26:00,
2013-11-28 16:27:00,35.8,20.3,30.35,WNW,298,5.0,10.0,53,0.00,,,0.00,meteohub,2013-11-28 21:27:00,
2013-11-28 16:30:00,35.4,19.9,30.36,WNW,288,3.0,10.0,53,0.00,,,0.00,meteohub,2013-11-28 21:30:00,
2013-11-28 16:32:00,35.4,20.5,30.36,West,269,8.0,10.0,54,0.00,,,0.00,meteohub,2013-11-28 21:32:00,
2013-11-28 16:33:00,35.2,20.3,30.36,WNW,293,3.0,10.0,54,0.00,,,0.00,meteohub,2013-11-28 21:33:00,
2013-11-28 16:35:00,35.2,20.3,30.36,WSW,253,4.0,10.0,54,0.00,,,0.00,meteohub,2013-11-28 21:35:00,
2013-11-28 16:37:00,35.1,20.5,30.36,West,281,2.0,9.0,55,0.00,,,0.00,meteohub,2013-11-28 21:37:00,
2013-11-28 16:38:00,35.1,20.5,30.36,WNW,292,8.0,9.0,55,0.00,,,0.00,meteohub,2013-11-28 21:38:00,
2013-11-28 16:39:00,35.1,20.5,30.36,WNW,290,3.0,9.0,55,0.00,,,0.00,meteohub,2013-11-28 21:39:00,
2013-11-28 16:40:00,35.1,20.5,30.36,WNW,288,1.0,9.0,55,0.00,,,0.00,meteohub,2013-11-28 21:40:00,
2013-11-28 16:42:00,35.1,20.5,30.36,WNW,286,2.0,9.0,55,0.00,,,0.00,meteohub,2013-11-28 21:42:00,
2013-11-28 16:43:00,35.1,21.0,30.36,WNW,290,1.0,9.0,56,0.00,,,0.00,meteohub,2013-11-28 21:43:00,
2013-11-28 16:44:00,34.9,20.8,30.36,WNW,290,0.0,9.0,56,0.00,,,0.00,meteohub,2013-11-28 21:44:00,
2013-11-28 16:46:00,34.9,21.2,30.36,West,281,2.0,9.0,57,0.00,,,0.00,meteohub,2013-11-28 21:46:00,
2013-11-28 16:47:00,34.9,21.6,30.36,WNW,293,2.0,9.0,58,0.00,,,0.00,meteohub,2013-11-28 21:47:00,
2013-11-28 16:49:00,34.9,21.6,30.36,WNW,282,1.0,9.0,58,0.00,,,0.00,meteohub,2013-11-28 21:49:00,
2013-11-28 16:51:00,34.9,21.9,30.36,WNW,292,4.0,8.0,59,0.00,,,0.00,meteohub,2013-11-28 21:51:00,
2013-11-28 16:52:00,34.7,21.9,30.36,West,267,4.0,8.0,59,0.00,,,0.00,meteohub,2013-11-28 21:52:00,
2013-11-28 16:54:00,34.7,21.9,30.36,WNW,294,2.0,8.0,59,0.00,,,0.00,meteohub,2013-11-28 21:54:00,
2013-11-28 16:55:00,34.7,21.9,30.36,WNW,286,2.0,8.0,59,0.00,,,0.00,meteohub,2013-11-28 21:55:00,
2013-11-28 16:56:00,34.7,21.9,30.36,WNW,290,4.0,7.0,59,0.00,,,0.00,meteohub,2013-11-28 21:56:00,
2013-11-28 16:58:00,34.5,21.7,30.36,WNW,284,7.0,7.0,59,0.00,,,0.00,meteohub,2013-11-28 21:58:00,
2013-11-28 16:59:00,34.5,21.7,30.36,West,275,4.0,7.0,59,0.00,,,0.00,meteohub,2013-11-28 21:59:00,
2013-11-28 17:00:00,34.5,21.7,30.36,WSW,254,1.0,7.0,59,0.00,,,0.00,meteohub,2013-11-28 22:00:00,
2013-11-28 17:01:00,34.5,21.7,30.37,WNW,286,3.0,7.0,59,0.00,,,0.00,meteohub,2013-11-28 22:01:00,
2013-11-28 17:04:00,34.5,21.7,30.37,WNW,286,3.0,7.0,59,0.00,,,0.00,meteohub,2013-11-28 22:04:00,
2013-11-28 17:05:00,34.3,21.6,30.37,WNW,296,4.0,7.0,59,0.00,,,0.00,meteohub,2013-11-28 22:05:00,
2013-11-28 17:07:00,34.3,21.9,30.37,West,279,9.0,9.0,60,0.00,,,0.00,meteohub,2013-11-28 22:07:00,
2013-11-28 17:09:00,34.3,21.9,30.37,West,276,3.0,8.0,60,0.00,,,0.00,meteohub,2013-11-28 22:09:00,
2013-11-28 17:10:00,34.3,21.9,30.37,WNW,282,4.0,8.0,60,0.00,,,0.00,meteohub,2013-11-28 22:10:00,
2013-11-28 17:11:00,34.2,21.7,30.38,WNW,292,4.0,9.0,60,0.00,,,0.00,meteohub,2013-11-28 22:11:00,
2013-11-28 17:12:00,34.2,21.7,30.38,West,281,3.0,9.0,60,0.00,,,0.00,meteohub,2013-11-28 22:12:00,
2013-11-28 17:15:00,34.2,22.1,30.38,West,277,3.0,9.0,61,0.00,,,0.00,meteohub,2013-11-28 22:15:00,
2013-11-28 17:16:00,34.2,22.1,30.38,WNW,294,4.0,9.0,61,0.00,,,0.00,meteohub,2013-11-28 22:16:00,
2013-11-28 17:17:00,34.0,21.9,30.38,West,277,6.0,9.0,61,0.00,,,0.00,meteohub,2013-11-28 22:17:00,
2013-11-28 17:19:00,34.0,21.9,30.38,West,281,1.0,9.0,61,0.00,,,0.00,meteohub,2013-11-28 22:19:00,
2013-11-28 17:20:00,34.0,21.9,30.38,WNW,296,1.0,9.0,61,0.00,,,0.00,meteohub,2013-11-28 22:20:00,
2013-11-28 17:21:00,34.0,21.9,30.38,WNW,285,3.0,9.0,61,0.00,,,0.00,meteohub,2013-11-28 22:21:00,
2013-11-28 17:22:00,34.0,21.9,30.38,WNW,284,3.0,9.0,61,0.00,,,0.00,meteohub,2013-11-28 22:22:00,
2013-11-28 17:24:00,34.0,21.9,30.38,West,271,7.0,9.0,61,0.00,,,0.00,meteohub,2013-11-28 22:24:00,
2013-11-28 17:25:00,34.0,22.3,30.38,WNW,283,2.0,8.0,62,0.00,,,0.00,meteohub,2013-11-28 22:25:00,
2013-11-28 17:27:00,34.0,22.3,30.38,West,275,2.0,8.0,62,0.00,,,0.00,meteohub,2013-11-28 22:27:00,
2013-11-28 17:28:00,33.8,22.1,30.38,West,270,4.0,8.0,62,0.00,,,0.00,meteohub,2013-11-28 22:28:00,
2013-11-28 17:30:00,33.8,22.1,30.39,WNW,287,4.0,8.0,62,0.00,,,0.00,meteohub,2013-11-28 22:30:00,
2013-11-28 17:32:00,33.6,21.9,30.39,West,263,4.0,7.0,62,0.00,,,0.00,meteohub,2013-11-28 22:32:00,
2013-11-28 17:33:00,33.6,21.9,30.39,West,271,2.0,7.0,62,0.00,,,0.00,meteohub,2013-11-28 22:33:00,
2013-11-28 17:34:00,33.6,21.9,30.39,West,277,3.0,7.0,62,0.00,,,0.00,meteohub,2013-11-28 22:34:00,
2013-11-28 17:35:00,33.6,21.9,30.39,WNW,294,7.0,7.0,62,0.00,,,0.00,meteohub,2013-11-28 22:35:00,
2013-11-28 17:36:00,33.4,21.7,30.39,WNW,294,3.0,9.0,62,0.00,,,0.00,meteohub,2013-11-28 22:36:00,
2013-11-28 17:37:00,33.4,21.4,30.39,WNW,294,4.0,9.0,61,0.00,,,0.00,meteohub,2013-11-28 22:37:00,
2013-11-28 17:38:00,33.4,21.4,30.39,WNW,283,3.0,9.0,61,0.00,,,0.00,meteohub,2013-11-28 22:38:00,
2013-11-28 17:39:00,33.4,21.7,30.39,West,280,6.0,9.0,62,0.00,,,0.00,meteohub,2013-11-28 22:39:00,
2013-11-28 17:40:00,33.4,21.7,30.39,West,281,6.0,9.0,62,0.00,,,0.00,meteohub,2013-11-28 22:40:00,
2013-11-28 17:41:00,33.3,21.2,30.39,West,259,2.0,9.0,61,0.00,,,0.00,meteohub,2013-11-28 22:41:00,
2013-11-28 17:42:00,33.3,21.2,30.39,WNW,298,7.0,9.0,61,0.00,,,0.00,meteohub,2013-11-28 22:42:00,
2013-11-28 17:43:00,33.3,21.2,30.39,West,273,7.0,9.0,61,0.00,,,0.00,meteohub,2013-11-28 22:43:00,
2013-11-28 17:44:00,33.3,21.2,30.40,WNW,290,5.0,9.0,61,0.00,,,0.00,meteohub,2013-11-28 22:44:00,
2013-11-28 17:46:00,33.3,21.2,30.40,West,273,3.0,9.0,61,0.00,,,0.00,meteohub,2013-11-28 22:46:00,
2013-11-28 17:48:00,33.1,21.6,30.40,WNW,294,4.0,9.0,62,0.00,,,0.00,meteohub,2013-11-28 22:48:00,
2013-11-28 17:49:00,33.1,21.6,30.40,WNW,297,3.0,9.0,62,0.00,,,0.00,meteohub,2013-11-28 22:49:00,
2013-11-28 17:50:00,33.1,21.6,30.40,WNW,285,2.0,9.0,62,0.00,,,0.00,meteohub,2013-11-28 22:50:00,
2013-11-28 17:52:00,33.1,21.6,30.40,WNW,290,3.0,8.0,62,0.00,,,0.00,meteohub,2013-11-28 22:52:00,
2013-11-28 17:53:00,33.1,21.6,30.40,WNW,288,4.0,8.0,62,0.00,,,0.00,meteohub,2013-11-28 22:53:00,
2013-11-28 17:54:00,33.1,21.6,30.40,West,263,4.0,8.0,62,0.00,,,0.00,meteohub,2013-11-28 22:54:00,
2013-11-28 17:56:00,32.9,21.4,30.40,NW,308,3.0,8.0,62,0.00,,,0.00,meteohub,2013-11-28 22:56:00,
2013-11-28 17:57:00,32.9,21.4,30.40,West,267,1.0,8.0,62,0.00,,,0.00,meteohub,2013-11-28 22:57:00,
2013-11-28 17:58:00,32.9,21.4,30.40,WNW,298,5.0,8.0,62,0.00,,,0.00,meteohub,2013-11-28 22:58:00,
2013-11-28 17:59:00,32.9,21.4,30.40,West,281,7.0,8.0,62,0.00,,,0.00,meteohub,2013-11-28 22:59:00,
2013-11-28 18:00:00,32.9,21.4,30.40,West,281,3.0,8.0,62,0.00,,,0.00,meteohub,2013-11-28 23:00:00,
2013-11-28 18:01:00,32.7,21.2,30.40,West,277,4.0,9.0,62,0.00,,,0.00,meteohub,2013-11-28 23:01:00,
2013-11-28 18:03:00,32.7,21.2,30.41,WNW,288,2.0,9.0,62,0.00,,,0.00,meteohub,2013-11-28 23:03:00,
2013-11-28 18:04:00,32.7,21.2,30.41,WNW,295,4.0,9.0,62,0.00,,,0.00,meteohub,2013-11-28 23:04:00,
2013-11-28 18:05:00,32.7,21.2,30.41,WNW,285,6.0,9.0,62,0.00,,,0.00,meteohub,2013-11-28 23:05:00,
2013-11-28 18:07:00,32.7,21.2,30.41,West,274,3.0,9.0,62,0.00,,,0.00,meteohub,2013-11-28 23:07:00,
2013-11-28 18:08:00,32.7,21.6,30.41,WNW,290,4.0,9.0,63,0.00,,,0.00,meteohub,2013-11-28 23:08:00,
2013-11-28 18:09:00,32.7,21.6,30.41,WNW,289,2.0,9.0,63,0.00,,,0.00,meteohub,2013-11-28 23:09:00,
2013-11-28 18:10:00,32.7,21.6,30.41,WNW,289,3.0,9.0,63,0.00,,,0.00,meteohub,2013-11-28 23:10:00,
2013-11-28 18:12:00,32.7,21.2,30.41,WNW,296,5.0,9.0,62,0.00,,,0.00,meteohub,2013-11-28 23:12:00,
2013-11-28 18:13:00,32.5,21.0,30.41,WNW,288,0.0,9.0,62,0.00,,,0.00,meteohub,2013-11-28 23:13:00,
2013-11-28 18:14:00,32.5,21.4,30.41,WNW,290,3.0,9.0,63,0.00,,,0.00,meteohub,2013-11-28 23:14:00,
2013-11-28 18:15:00,32.5,21.4,30.41,WNW,294,1.0,9.0,63,0.00,,,0.00,meteohub,2013-11-28 23:15:00,
2013-11-28 18:16:00,32.5,21.4,30.41,West,275,4.0,9.0,63,0.00,,,0.00,meteohub,2013-11-28 23:16:00,
2013-11-28 18:17:00,32.5,21.4,30.41,WNW,287,3.0,9.0,63,0.00,,,0.00,meteohub,2013-11-28 23:17:00,
2013-11-28 18:19:00,32.4,21.2,30.42,WNW,290,2.0,9.0,63,0.00,,,0.00,meteohub,2013-11-28 23:19:00,
2013-11-28 18:21:00,32.4,21.2,30.42,WNW,300,3.0,8.0,63,0.00,,,0.00,meteohub,2013-11-28 23:21:00,
2013-11-28 18:23:00,32.4,21.6,30.42,WNW,289,2.0,8.0,64,0.00,,,0.00,meteohub,2013-11-28 23:23:00,
2013-11-28 18:24:00,32.4,21.6,30.42,WNW,294,4.0,8.0,64,0.00,,,0.00,meteohub,2013-11-28 23:24:00,
2013-11-28 18:25:00,32.2,21.4,30.42,WNW,285,2.0,8.0,64,0.00,,,0.00,meteohub,2013-11-28 23:25:00,
2013-11-28 18:26:00,32.2,21.4,30.42,WNW,293,2.0,8.0,64,0.00,,,0.00,meteohub,2013-11-28 23:26:00,
2013-11-28 18:28:00,32.2,21.4,30.42,WNW,286,3.0,8.0,64,0.00,,,0.00,meteohub,2013-11-28 23:28:00,
2013-11-28 18:29:00,32.2,21.4,30.42,WNW,288,2.0,8.0,64,0.00,,,0.00,meteohub,2013-11-28 23:29:00,
2013-11-28 18:31:00,32.0,21.2,30.42,WNW,286,3.0,7.0,64,0.00,,,0.00,meteohub,2013-11-28 23:31:00,
2013-11-28 18:32:00,32.0,21.2,30.42,WNW,292,2.0,7.0,64,0.00,,,0.00,meteohub,2013-11-28 23:32:00,
2013-11-28 18:33:00,32.0,21.2,30.42,WNW,290,3.0,7.0,64,0.00,,,0.00,meteohub,2013-11-28 23:33:00,
2013-11-28 18:34:00,32.0,21.2,30.42,WNW,288,2.0,7.0,64,0.00,,,0.00,meteohub,2013-11-28 23:34:00,
2013-11-28 18:36:00,32.0,21.6,30.42,WNW,295,2.0,7.0,65,0.00,,,0.00,meteohub,2013-11-28 23:36:00,
2013-11-28 18:38:00,31.8,21.4,30.42,WNW,290,2.0,7.0,65,0.00,,,0.00,meteohub,2013-11-28 23:38:00,
2013-11-28 18:39:00,31.8,21.4,30.43,WNW,289,2.0,7.0,65,0.00,,,0.00,meteohub,2013-11-28 23:39:00,
2013-11-28 18:41:00,31.8,21.4,30.43,WNW,295,3.0,6.0,65,0.00,,,0.00,meteohub,2013-11-28 23:41:00,
2013-11-28 18:42:00,31.8,21.4,30.43,WNW,294,3.0,6.0,65,0.00,,,0.00,meteohub,2013-11-28 23:42:00,
2013-11-28 18:43:00,31.8,21.4,30.43,WNW,292,2.0,6.0,65,0.00,,,0.00,meteohub,2013-11-28 23:43:00,
2013-11-28 18:44:00,31.8,21.4,30.43,West,281,2.0,6.0,65,0.00,,,0.00,meteohub,2013-11-28 23:44:00,
2013-11-28 18:46:00,31.8,21.4,30.43,WNW,297,4.0,6.0,65,0.00,,,0.00,meteohub,2013-11-28 23:46:00,
2013-11-28 18:47:00,31.8,21.4,30.43,WNW,293,4.0,6.0,65,0.00,,,0.00,meteohub,2013-11-28 23:47:00,
2013-11-28 18:48:00,31.8,21.4,30.43,WNW,292,0.0,6.0,65,0.00,,,0.00,meteohub,2013-11-28 23:48:00,
2013-11-28 18:49:00,31.8,21.4,30.43,West,279,3.0,6.0,65,0.00,,,0.00,meteohub,2013-11-28 23:49:00,
2013-11-28 18:52:00,31.8,21.4,30.43,WNW,282,3.0,6.0,65,0.00,,,0.00,meteohub,2013-11-28 23:52:00,
2013-11-28 18:53:00,31.6,21.2,30.43,WNW,289,3.0,6.0,65,0.00,,,0.00,meteohub,2013-11-28 23:53:00,
2013-11-28 18:54:00,31.6,21.2,30.43,WNW,289,1.0,6.0,65,0.00,,,0.00,meteohub,2013-11-28 23:54:00,
2013-11-28 18:57:00,31.6,21.2,30.43,WNW,297,1.0,5.0,65,0.00,,,0.00,meteohub,2013-11-28 23:57:00,
2013-11-28 18:58:00,31.6,21.2,30.43,WNW,295,3.0,5.0,65,0.00,,,0.00,meteohub,2013-11-28 23:58:00,
2013-11-28 18:59:00,31.6,21.2,30.43,WNW,294,1.0,5.0,65,0.00,,,0.00,meteohub,2013-11-28 23:59:00,
2013-11-28 19:00:00,31.6,21.6,30.43,WNW,294,2.0,5.0,66,0.00,,,0.00,meteohub,2013-11-29 00:00:00,
2013-11-28 19:02:00,31.6,21.6,30.43,WNW,294,1.0,4.0,66,0.00,,,0.00,meteohub,2013-11-29 00:02:00,
2013-11-28 19:04:00,31.6,21.6,30.43,WNW,295,1.0,4.0,66,0.00,,,0.00,meteohub,2013-11-29 00:04:00,
2013-11-28 19:06:00,31.5,21.4,30.43,WNW,295,2.0,4.0,66,0.00,,,0.00,meteohub,2013-11-29 00:06:00,
2013-11-28 19:07:00,31.5,21.4,30.43,WNW,294,3.0,4.0,66,0.00,,,0.00,meteohub,2013-11-29 00:07:00,
2013-11-28 19:08:00,31.5,21.4,30.43,WNW,294,1.0,4.0,66,0.00,,,0.00,meteohub,2013-11-29 00:08:00,
2013-11-28 19:09:00,31.5,21.4,30.43,WNW,292,1.0,4.0,66,0.00,,,0.00,meteohub,2013-11-29 00:09:00,
2013-11-28 19:10:00,31.5,21.4,30.43,WNW,292,2.0,4.0,66,0.00,,,0.00,meteohub,2013-11-29 00:10:00,
2013-11-28 19:12:00,31.5,21.4,30.43,WNW,291,3.0,4.0,66,0.00,,,0.00,meteohub,2013-11-29 00:12:00,
2013-11-28 19:13:00,31.5,21.7,30.43,WNW,300,2.0,4.0,67,0.00,,,0.00,meteohub,2013-11-29 00:13:00,
2013-11-28 19:14:00,31.5,21.7,30.43,WNW,290,3.0,4.0,67,0.00,,,0.00,meteohub,2013-11-29 00:14:00,
2013-11-28 19:15:00,31.5,21.7,30.43,WNW,294,2.0,4.0,67,0.00,,,0.00,meteohub,2013-11-29 00:15:00,
2013-11-28 19:17:00,31.5,21.7,30.43,WNW,294,0.0,4.0,67,0.00,,,0.00,meteohub,2013-11-29 00:17:00,
2013-11-28 19:18:00,31.5,21.7,30.43,WNW,294,2.0,4.0,67,0.00,,,0.00,meteohub,2013-11-29 00:18:00,
2013-11-28 19:20:00,31.5,21.7,30.43,WNW,300,2.0,4.0,67,0.00,,,0.00,meteohub,2013-11-29 00:20:00,
2013-11-28 19:22:00,31.5,21.7,30.43,NW,308,3.0,5.0,67,0.00,,,0.00,meteohub,2013-11-29 00:22:00,
2013-11-28 19:23:00,31.5,21.7,30.43,NW,304,2.0,5.0,67,0.00,,,0.00,meteohub,2013-11-29 00:23:00,
2013-11-28 19:24:00,31.5,21.7,30.43,WNW,303,1.0,5.0,67,0.00,,,0.00,meteohub,2013-11-29 00:24:00,
2013-11-28 19:25:00,31.5,21.7,30.43,WNW,302,2.0,5.0,67,0.00,,,0.00,meteohub,2013-11-29 00:25:00,
2013-11-28 19:26:00,31.3,21.6,30.43,WNW,300,1.0,5.0,67,0.00,,,0.00,meteohub,2013-11-29 00:26:00,
2013-11-28 19:28:00,31.3,21.6,30.43,WNW,296,3.0,5.0,67,0.00,,,0.00,meteohub,2013-11-29 00:28:00,
2013-11-28 19:29:00,31.3,21.6,30.43,WNW,290,4.0,5.0,67,0.00,,,0.00,meteohub,2013-11-29 00:29:00,
2013-11-28 19:30:00,31.3,21.6,30.43,WNW,289,1.0,5.0,67,0.00,,,0.00,meteohub,2013-11-29 00:30:00,
2013-11-28 19:31:00,31.3,21.6,30.43,WNW,293,2.0,5.0,67,0.00,,,0.00,meteohub,2013-11-29 00:31:00,
2013-11-28 19:33:00,31.3,21.6,30.43,WNW,293,1.0,5.0,67,0.00,,,0.00,meteohub,2013-11-29 00:33:00,
2013-11-28 19:34:00,31.3,21.6,30.43,WNW,293,2.0,5.0,67,0.00,,,0.00,meteohub,2013-11-29 00:34:00,
2013-11-28 19:36:00,31.1,21.4,30.43,WNW,293,2.0,5.0,67,0.00,,,0.00,meteohub,2013-11-29 00:36:00,
2013-11-28 19:37:00,31.1,21.4,30.43,WNW,297,2.0,5.0,67,0.00,,,0.00,meteohub,2013-11-29 00:37:00,
2013-11-28 19:38:00,31.1,21.4,30.43,WNW,297,3.0,5.0,67,0.00,,,0.00,meteohub,2013-11-29 00:38:00,
2013-11-28 19:39:00,31.1,21.4,30.43,WNW,294,2.0,5.0,67,0.00,,,0.00,meteohub,2013-11-29 00:39:00,
2013-11-28 19:42:00,31.1,21.4,30.43,West,259,2.0,5.0,67,0.00,,,0.00,meteohub,2013-11-29 00:42:00,
2013-11-28 19:43:00,31.1,21.4,30.43,WNW,297,2.0,5.0,67,0.00,,,0.00,meteohub,2013-11-29 00:43:00,
2013-11-28 19:44:00,31.1,21.4,30.43,WNW,289,4.0,5.0,67,0.00,,,0.00,meteohub,2013-11-29 00:44:00,
2013-11-28 19:47:00,31.3,21.9,30.43,WNW,300,3.0,6.0,68,0.00,,,0.00,meteohub,2013-11-29 00:47:00,
2013-11-28 19:48:00,31.3,21.9,30.43,WNW,300,2.0,6.0,68,0.00,,,0.00,meteohub,2013-11-29 00:48:00,
2013-11-28 19:49:00,31.3,21.9,30.44,WNW,292,3.0,6.0,68,0.00,,,0.00,meteohub,2013-11-29 00:49:00,
2013-11-28 19:51:00,31.3,21.9,30.44,WNW,288,4.0,6.0,68,0.00,,,0.00,meteohub,2013-11-29 00:51:00,
2013-11-28 19:52:00,31.3,21.9,30.43,WNW,290,2.0,6.0,68,0.00,,,0.00,meteohub,2013-11-29 00:52:00,
2013-11-28 19:54:00,31.3,21.9,30.44,WNW,290,4.0,6.0,68,0.00,,,0.00,meteohub,2013-11-29 00:54:00,
2013-11-28 19:56:00,31.3,21.9,30.44,WNW,292,2.0,7.0,68,0.00,,,0.00,meteohub,2013-11-29 00:56:00,
2013-11-28 19:57:00,31.3,21.9,30.44,WNW,292,1.0,7.0,68,0.00,,,0.00,meteohub,2013-11-29 00:57:00,
2013-11-28 19:58:00,31.3,21.9,30.44,WNW,292,2.0,7.0,68,0.00,,,0.00,meteohub,2013-11-29 00:58:00,
2013-11-28 20:00:00,31.3,21.9,30.44,WNW,292,1.0,7.0,68,0.00,,,0.00,meteohub,2013-11-29 01:00:00,
2013-11-28 20:01:00,31.3,21.9,30.44,West,271,1.0,7.0,68,0.00,,,0.00,meteohub,2013-11-29 01:01:00,
2013-11-28 20:02:00,31.3,21.9,30.44,WNW,302,2.0,7.0,68,0.00,,,0.00,meteohub,2013-11-29 01:02:00,
2013-11-28 20:03:00,31.3,21.9,30.44,WNW,292,2.0,7.0,68,0.00,,,0.00,meteohub,2013-11-29 01:03:00,
2013-11-28 20:04:00,31.3,21.9,30.44,WNW,293,2.0,7.0,68,0.00,,,0.00,meteohub,2013-11-29 01:04:00,
2013-11-28 20:05:00,31.3,21.9,30.44,WNW,299,4.0,5.0,68,0.00,,,0.00,meteohub,2013-11-29 01:05:00,
2013-11-28 20:06:00,31.3,21.9,30.44,WNW,298,2.0,5.0,68,0.00,,,0.00,meteohub,2013-11-29 01:06:00,
2013-11-28 20:07:00,31.3,21.6,30.44,WNW,296,1.0,5.0,67,0.00,,,0.00,meteohub,2013-11-29 01:07:00,
2013-11-28 20:08:00,31.3,21.6,30.44,WNW,301,4.0,5.0,67,0.00,,,0.00,meteohub,2013-11-29 01:08:00,
2013-11-28 20:09:00,31.3,21.6,30.44,WNW,295,2.0,5.0,67,0.00,,,0.00,meteohub,2013-11-29 01:09:00,
2013-11-28 20:11:00,31.3,21.6,30.44,WNW,286,1.0,5.0,67,0.00,,,0.00,meteohub,2013-11-29 01:11:00,
2013-11-28 20:12:00,31.3,21.6,30.44,WNW,301,2.0,5.0,67,0.00,,,0.00,meteohub,2013-11-29 01:12:00,
2013-11-28 20:14:00,31.3,21.6,30.44,WNW,301,3.0,5.0,67,0.00,,,0.00,meteohub,2013-11-29 01:14:00,
2013-11-28 20:15:00,31.3,21.6,30.44,WNW,288,2.0,5.0,67,0.00,,,0.00,meteohub,2013-11-29 01:15:00,
2013-11-28 20:16:00,31.3,21.6,30.44,WNW,294,3.0,5.0,67,0.00,,,0.00,meteohub,2013-11-29 01:16:00,
2013-11-28 20:17:00,31.3,21.6,30.44,WNW,292,1.0,5.0,67,0.00,,,0.00,meteohub,2013-11-29 01:17:00,
2013-11-28 20:18:00,31.3,21.6,30.44,WNW,292,2.0,5.0,67,0.00,,,0.00,meteohub,2013-11-29 01:18:00,
2013-11-28 20:19:00,31.3,21.6,30.44,WNW,288,3.0,5.0,67,0.00,,,0.00,meteohub,2013-11-29 01:19:00,
2013-11-28 20:20:00,31.3,21.9,30.44,WNW,288,3.0,5.0,68,0.00,,,0.00,meteohub,2013-11-29 01:20:00,
2013-11-28 20:21:00,31.3,21.9,30.44,WNW,298,4.0,4.0,68,0.00,,,0.00,meteohub,2013-11-29 01:21:00,
2013-11-28 20:22:00,31.3,21.9,30.44,WNW,296,1.0,4.0,68,0.00,,,0.00,meteohub,2013-11-29 01:22:00,
2013-11-28 20:23:00,31.3,21.6,30.45,WNW,294,3.0,4.0,67,0.00,,,0.00,meteohub,2013-11-29 01:23:00,
2013-11-28 20:24:00,31.1,21.4,30.45,WNW,284,2.0,4.0,67,0.00,,,0.00,meteohub,2013-11-29 01:24:00,
2013-11-28 20:26:00,31.1,21.4,30.45,WNW,288,0.0,5.0,67,0.00,,,0.00,meteohub,2013-11-29 01:26:00,
2013-11-28 20:27:00,31.1,21.4,30.44,WNW,288,2.0,5.0,67,0.00,,,0.00,meteohub,2013-11-29 01:27:00,
2013-11-28 20:28:00,31.1,21.7,30.44,WNW,288,0.0,5.0,68,0.00,,,0.00,meteohub,2013-11-29 01:28:00,
2013-11-28 20:29:00,31.1,21.4,30.45,WNW,289,1.0,5.0,67,0.00,,,0.00,meteohub,2013-11-29 01:29:00,
2013-11-28 20:30:00,31.1,21.4,30.45,WNW,289,1.0,5.0,67,0.00,,,0.00,meteohub,2013-11-29 01:30:00,
2013-11-28 20:32:00,30.9,21.6,30.45,West,273,2.0,6.0,68,0.00,,,0.00,meteohub,2013-11-29 01:32:00,
2013-11-28 20:34:00,30.9,21.2,30.45,WNW,294,3.0,6.0,67,0.00,,,0.00,meteohub,2013-11-29 01:34:00,
2013-11-28 20:35:00,30.9,21.6,30.45,WNW,295,2.0,7.0,68,0.00,,,0.00,meteohub,2013-11-29 01:35:00,
2013-11-28 20:36:00,30.9,21.6,30.45,WNW,294,2.0,7.0,68,0.00,,,0.00,meteohub,2013-11-29 01:36:00,
2013-11-28 20:37:00,30.9,21.2,30.45,WNW,294,1.0,7.0,67,0.00,,,0.00,meteohub,2013-11-29 01:37:00,
2013-11-28 20:40:00,30.9,21.2,30.45,WNW,295,1.0,7.0,67,0.00,,,0.00,meteohub,2013-11-29 01:40:00,
2013-11-28 20:41:00,30.9,21.2,30.45,WNW,292,0.0,7.0,67,0.00,,,0.00,meteohub,2013-11-29 01:41:00,
2013-11-28 20:42:00,30.9,21.2,30.45,WNW,292,1.0,7.0,67,0.00,,,0.00,meteohub,2013-11-29 01:42:00,
2013-11-28 20:43:00,30.9,21.2,30.45,WNW,293,1.0,7.0,67,0.00,,,0.00,meteohub,2013-11-29 01:43:00,
2013-11-28 20:45:00,30.9,21.2,30.45,WNW,293,3.0,7.0,67,0.00,,,0.00,meteohub,2013-11-29 01:45:00,
2013-11-28 20:46:00,30.9,21.2,30.45,WNW,293,1.0,7.0,67,0.00,,,0.00,meteohub,2013-11-29 01:46:00,
2013-11-28 20:47:00,30.9,21.2,30.45,WNW,293,1.0,7.0,67,0.00,,,0.00,meteohub,2013-11-29 01:47:00,
2013-11-28 20:48:00,30.9,21.2,30.45,WNW,293,0.0,7.0,67,0.00,,,0.00,meteohub,2013-11-29 01:48:00,
2013-11-28 20:49:00,30.9,21.2,30.45,WNW,300,3.0,7.0,67,0.00,,,0.00,meteohub,2013-11-29 01:49:00,
2013-11-28 20:50:00,30.9,21.2,30.45,WNW,300,2.0,4.0,67,0.00,,,0.00,meteohub,2013-11-29 01:50:00,
2013-11-28 20:51:00,30.9,21.2,30.45,WNW,300,2.0,4.0,67,0.00,,,0.00,meteohub,2013-11-29 01:51:00,
2013-11-28 20:52:00,30.9,21.2,30.45,WNW,300,1.0,4.0,67,0.00,,,0.00,meteohub,2013-11-29 01:52:00,
2013-11-28 20:53:00,30.9,21.2,30.45,WNW,300,1.0,4.0,67,0.00,,,0.00,meteohub,2013-11-29 01:53:00,
2013-11-28 20:55:00,30.9,21.2,30.45,WNW,300,1.0,4.0,67,0.00,,,0.00,meteohub,2013-11-29 01:55:00,
2013-11-28 20:56:00,30.9,21.2,30.45,WNW,291,2.0,3.0,67,0.00,,,0.00,meteohub,2013-11-29 01:56:00,
2013-11-28 20:57:00,30.9,21.2,30.45,WNW,291,0.0,3.0,67,0.00,,,0.00,meteohub,2013-11-29 01:57:00,
2013-11-28 20:58:00,30.9,21.2,30.45,WNW,291,2.0,3.0,67,0.00,,,0.00,meteohub,2013-11-29 01:58:00,
2013-11-28 20:59:00,30.9,21.2,30.45,WNW,290,1.0,3.0,67,0.00,,,0.00,meteohub,2013-11-29 01:59:00,
2013-11-28 21:00:00,30.9,21.2,30.45,WNW,290,0.0,3.0,67,0.00,,,0.00,meteohub,2013-11-29 02:00:00,
2013-11-28 21:01:00,30.9,21.2,30.45,WNW,290,2.0,3.0,67,0.00,,,0.00,meteohub,2013-11-29 02:01:00,
2013-11-28 21:04:00,30.9,21.2,30.45,WNW,291,1.0,3.0,67,0.00,,,0.00,meteohub,2013-11-29 02:04:00,
2013-11-28 21:05:00,30.9,21.2,30.45,WNW,291,2.0,3.0,67,0.00,,,0.00,meteohub,2013-11-29 02:05:00,
2013-11-28 21:06:00,30.9,21.2,30.45,WNW,291,2.0,4.0,67,0.00,,,0.00,meteohub,2013-11-29 02:06:00,
2013-11-28 21:09:00,30.9,21.2,30.46,WNW,291,2.0,4.0,67,0.00,,,0.00,meteohub,2013-11-29 02:09:00,
2013-11-28 21:10:00,30.9,21.2,30.46,WNW,291,1.0,4.0,67,0.00,,,0.00,meteohub,2013-11-29 02:10:00,
2013-11-28 21:11:00,30.9,21.2,30.45,WNW,291,1.0,4.0,67,0.00,,,0.00,meteohub,2013-11-29 02:11:00,
2013-11-28 21:12:00,30.9,21.2,30.45,WNW,291,0.0,4.0,67,0.00,,,0.00,meteohub,2013-11-29 02:12:00,
2013-11-28 21:15:00,30.9,21.2,30.45,WNW,291,0.0,4.0,67,0.00,,,0.00,meteohub,2013-11-29 02:15:00,
2013-11-28 21:16:00,30.9,21.2,30.45,WNW,291,1.0,3.0,67,0.00,,,0.00,meteohub,2013-11-29 02:16:00,
2013-11-28 21:17:00,30.9,21.2,30.45,WNW,291,0.0,3.0,67,0.00,,,0.00,meteohub,2013-11-29 02:17:00,
2013-11-28 21:21:00,30.9,21.2,30.45,WNW,291,1.0,3.0,67,0.00,,,0.00,meteohub,2013-11-29 02:21:00,
2013-11-28 21:22:00,30.9,21.6,30.45,WNW,291,1.0,3.0,68,0.00,,,0.00,meteohub,2013-11-29 02:22:00,
2013-11-28 21:24:00,30.9,21.6,30.45,WNW,294,0.0,3.0,68,0.00,,,0.00,meteohub,2013-11-29 02:24:00,
2013-11-28 21:26:00,30.9,21.2,30.45,WNW,294,1.0,4.0,67,0.00,,,0.00,meteohub,2013-11-29 02:26:00,
2013-11-28 21:27:00,30.9,21.2,30.45,WNW,294,2.0,4.0,67,0.00,,,0.00,meteohub,2013-11-29 02:27:00,
2013-11-28 21:28:00,30.9,21.6,30.46,WNW,294,2.0,4.0,68,0.00,,,0.00,meteohub,2013-11-29 02:28:00,
2013-11-28 21:29:00,30.9,21.2,30.46,WNW,294,2.0,4.0,67,0.00,,,0.00,meteohub,2013-11-29 02:29:00,
2013-11-28 21:31:00,30.9,21.2,30.46,WNW,293,1.0,4.0,67,0.00,,,0.00,meteohub,2013-11-29 02:31:00,
2013-11-28 21:32:00,30.9,21.6,30.46,WNW,293,3.0,4.0,68,0.00,,,0.00,meteohub,2013-11-29 02:32:00,
2013-11-28 21:33:00,30.9,21.6,30.46,WNW,298,2.0,4.0,68,0.00,,,0.00,meteohub,2013-11-29 02:33:00,
2013-11-28 21:34:00,31.1,21.7,30.46,WNW,298,1.0,4.0,68,0.00,,,0.00,meteohub,2013-11-29 02:34:00,
2013-11-28 21:35:00,30.9,21.6,30.46,WNW,298,2.0,4.0,68,0.00,,,0.00,meteohub,2013-11-29 02:35:00,
2013-11-28 21:36:00,31.1,21.7,30.46,WNW,298,2.0,4.0,68,0.00,,,0.00,meteohub,2013-11-29 02:36:00,
2013-11-28 21:37:00,31.1,21.7,30.46,WNW,298,2.0,4.0,68,0.00,,,0.00,meteohub,2013-11-29 02:37:00,
2013-11-28 21:38:00,31.1,21.4,30.46,WNW,295,2.0,4.0,67,0.00,,,0.00,meteohub,2013-11-29 02:38:00,
2013-11-28 21:41:00,31.1,21.4,30.47,WNW,296,1.0,4.0,67,0.00,,,0.00,meteohub,2013-11-29 02:41:00,
2013-11-28 21:42:00,31.1,21.4,30.47,WNW,294,4.0,4.0,67,0.00,,,0.00,meteohub,2013-11-29 02:42:00,
2013-11-28 21:44:00,31.1,21.4,30.47,WNW,292,1.0,4.0,67,0.00,,,0.00,meteohub,2013-11-29 02:44:00,
2013-11-28 21:46:00,31.1,21.4,30.47,WNW,292,2.0,4.0,67,0.00,,,0.00,meteohub,2013-11-29 02:46:00,
2013-11-28 21:47:00,31.1,21.4,30.47,WNW,292,0.0,4.0,67,0.00,,,0.00,meteohub,2013-11-29 02:47:00,
2013-11-28 21:50:00,31.3,21.6,30.46,WNW,299,1.0,4.0,67,0.00,,,0.00,meteohub,2013-11-29 02:50:00,
2013-11-28 21:52:00,31.3,21.9,30.46,WNW,299,0.0,4.0,68,0.00,,,0.00,meteohub,2013-11-29 02:52:00,
2013-11-28 21:53:00,31.3,21.9,30.46,WNW,300,1.0,4.0,68,0.00,,,0.00,meteohub,2013-11-29 02:53:00,
2013-11-28 21:55:00,31.3,21.6,30.46,WNW,300,1.0,4.0,67,0.00,,,0.00,meteohub,2013-11-29 02:55:00,
2013-11-28 21:57:00,31.3,21.6,30.46,WNW,299,2.0,4.0,67,0.00,,,0.00,meteohub,2013-11-29 02:57:00,
2013-11-28 21:58:00,31.3,21.9,30.46,WNW,299,1.0,4.0,68,0.00,,,0.00,meteohub,2013-11-29 02:58:00,
2013-11-28 21:59:00,31.3,21.6,30.46,WNW,299,0.0,4.0,67,0.00,,,0.00,meteohub,2013-11-29 02:59:00,
2013-11-28 22:01:00,31.3,21.9,30.46,WNW,299,2.0,4.0,68,0.00,,,0.00,meteohub,2013-11-29 03:01:00,
2013-11-28 22:02:00,31.3,21.9,30.46,WNW,299,1.0,4.0,68,0.00,,,0.00,meteohub,2013-11-29 03:02:00,
2013-11-28 22:03:00,31.3,21.9,30.46,WNW,299,1.0,4.0,68,0.00,,,0.00,meteohub,2013-11-29 03:03:00,
2013-11-28 22:04:00,31.3,21.9,30.46,WNW,299,1.0,4.0,68,0.00,,,0.00,meteohub,2013-11-29 03:04:00,
2013-11-28 22:05:00,31.3,21.9,30.46,WNW,298,1.0,4.0,68,0.00,,,0.00,meteohub,2013-11-29 03:05:00,
2013-11-28 22:06:00,31.3,21.9,30.46,NW,309,2.0,3.0,68,0.00,,,0.00,meteohub,2013-11-29 03:06:00,
2013-11-28 22:07:00,31.3,21.9,30.46,NW,305,2.0,3.0,68,0.00,,,0.00,meteohub,2013-11-29 03:07:00,
2013-11-28 22:08:00,31.3,21.9,30.46,NW,304,2.0,3.0,68,0.00,,,0.00,meteohub,2013-11-29 03:08:00,
2013-11-28 22:09:00,31.5,22.1,30.46,WNW,300,3.0,3.0,68,0.00,,,0.00,meteohub,2013-11-29 03:09:00,
2013-11-28 22:11:00,31.5,21.7,30.46,WNW,299,1.0,3.0,67,0.00,,,0.00,meteohub,2013-11-29 03:11:00,
2013-11-28 22:12:00,31.5,21.7,30.46,WNW,299,0.0,3.0,67,0.00,,,0.00,meteohub,2013-11-29 03:12:00,
2013-11-28 22:13:00,31.5,21.7,30.46,WNW,299,0.0,3.0,67,0.00,,,0.00,meteohub,2013-11-29 03:13:00,
2013-11-28 22:14:00,31.5,21.7,30.47,WNW,299,1.0,3.0,67,0.00,,,0.00,meteohub,2013-11-29 03:14:00,
2013-11-28 22:15:00,31.5,21.7,30.46,WNW,299,0.0,3.0,67,0.00,,,0.00,meteohub,2013-11-29 03:15:00,
2013-11-28 22:17:00,31.5,21.7,30.46,WNW,299,0.0,4.0,67,0.00,,,0.00,meteohub,2013-11-29 03:17:00,
2013-11-28 22:18:00,31.5,21.7,30.47,WNW,290,2.0,4.0,67,0.00,,,0.00,meteohub,2013-11-29 03:18:00,
2013-11-28 22:19:00,31.5,21.7,30.47,WNW,290,0.0,4.0,67,0.00,,,0.00,meteohub,2013-11-29 03:19:00,
2013-11-28 22:20:00,31.5,21.7,30.47,WNW,290,2.0,4.0,67,0.00,,,0.00,meteohub,2013-11-29 03:20:00,
2013-11-28 22:22:00,31.6,21.9,30.47,WNW,290,0.0,4.0,67,0.00,,,0.00,meteohub,2013-11-29 03:22:00,
2013-11-28 22:23:00,31.5,21.7,30.47,WNW,290,1.0,4.0,67,0.00,,,0.00,meteohub,2013-11-29 03:23:00,
2013-11-28 22:24:00,31.6,21.6,30.47,WNW,288,1.0,4.0,66,0.00,,,0.00,meteohub,2013-11-29 03:24:00,
2013-11-28 22:26:00,31.6,21.6,30.47,WNW,288,1.0,4.0,66,0.00,,,0.00,meteohub,2013-11-29 03:26:00,
2013-11-28 22:27:00,31.6,21.6,30.47,WNW,288,1.0,4.0,66,0.00,,,0.00,meteohub,2013-11-29 03:27:00,
2013-11-28 22:28:00,31.6,21.6,30.47,WNW,288,2.0,4.0,66,0.00,,,0.00,meteohub,2013-11-29 03:28:00,
2013-11-28 22:29:00,31.6,21.6,30.47,WNW,294,2.0,4.0,66,0.00,,,0.00,meteohub,2013-11-29 03:29:00,
2013-11-28 22:31:00,31.6,21.2,30.47,WNW,294,0.0,4.0,65,0.00,,,0.00,meteohub,2013-11-29 03:31:00,
2013-11-28 22:33:00,31.8,21.4,30.47,WNW,291,2.0,4.0,65,0.00,,,0.00,meteohub,2013-11-29 03:33:00,
2013-11-28 22:34:00,31.6,21.2,30.47,WNW,291,1.0,4.0,65,0.00,,,0.00,meteohub,2013-11-29 03:34:00,
2013-11-28 22:37:00,31.8,21.4,30.48,WNW,291,0.0,4.0,65,0.00,,,0.00,meteohub,2013-11-29 03:37:00,
2013-11-28 22:38:00,31.8,21.4,30.48,WNW,291,3.0,4.0,65,0.00,,,0.00,meteohub,2013-11-29 03:38:00,
2013-11-28 22:39:00,31.8,21.4,30.48,WNW,291,0.0,4.0,65,0.00,,,0.00,meteohub,2013-11-29 03:39:00,
2013-11-28 22:41:00,31.8,21.4,30.48,WNW,291,0.0,4.0,65,0.00,,,0.00,meteohub,2013-11-29 03:41:00,
2013-11-28 22:42:00,31.8,21.4,30.48,WNW,291,0.0,4.0,65,0.00,,,0.00,meteohub,2013-11-29 03:42:00,
2013-11-28 22:43:00,31.8,21.4,30.48,WNW,291,0.0,4.0,65,0.00,,,0.00,meteohub,2013-11-29 03:43:00,
2013-11-28 22:44:00,31.8,21.4,30.48,WNW,293,1.0,4.0,65,0.00,,,0.00,meteohub,2013-11-29 03:44:00,
2013-11-28 22:45:00,31.8,21.4,30.48,WNW,293,0.0,4.0,65,0.00,,,0.00,meteohub,2013-11-29 03:45:00,
2013-11-28 22:46:00,31.8,21.4,30.48,WNW,293,1.0,5.0,65,0.00,,,0.00,meteohub,2013-11-29 03:46:00,
2013-11-28 22:48:00,31.8,21.4,30.48,WNW,298,3.0,5.0,65,0.00,,,0.00,meteohub,2013-11-29 03:48:00,
2013-11-28 22:49:00,31.8,21.4,30.48,WNW,298,2.0,5.0,65,0.00,,,0.00,meteohub,2013-11-29 03:49:00,
2013-11-28 22:50:00,31.8,21.4,30.48,WNW,298,1.0,5.0,65,0.00,,,0.00,meteohub,2013-11-29 03:50:00,
2013-11-28 22:51:00,31.8,21.4,30.48,WNW,297,2.0,5.0,65,0.00,,,0.00,meteohub,2013-11-29 03:51:00,
2013-11-28 22:54:00,31.8,21.4,30.48,WNW,297,2.0,5.0,65,0.00,,,0.00,meteohub,2013-11-29 03:54:00,
2013-11-28 22:55:00,31.8,21.4,30.48,WNW,297,1.0,5.0,65,0.00,,,0.00,meteohub,2013-11-29 03:55:00,
2013-11-28 22:56:00,31.8,21.4,30.48,WNW,297,2.0,5.0,65,0.00,,,0.00,meteohub,2013-11-29 03:56:00,
2013-11-28 23:00:00,31.8,21.7,30.48,WNW,302,0.0,5.0,66,0.00,,,0.00,meteohub,2013-11-29 04:00:00,
2013-11-28 23:01:00,31.8,21.7,30.48,WNW,302,1.0,4.0,66,0.00,,,0.00,meteohub,2013-11-29 04:01:00,
2013-11-28 23:02:00,31.8,21.7,30.48,WNW,302,2.0,4.0,66,0.00,,,0.00,meteohub,2013-11-29 04:02:00,
2013-11-28 23:05:00,31.8,21.7,30.48,WNW,302,0.0,4.0,66,0.00,,,0.00,meteohub,2013-11-29 04:05:00,
2013-11-28 23:06:00,31.8,21.7,30.48,WNW,302,1.0,4.0,66,0.00,,,0.00,meteohub,2013-11-29 04:06:00,
2013-11-28 23:07:00,31.8,21.7,30.48,WNW,302,1.0,4.0,66,0.00,,,0.00,meteohub,2013-11-29 04:07:00,
2013-11-28 23:09:00,31.8,21.7,30.48,WNW,302,0.0,4.0,66,0.00,,,0.00,meteohub,2013-11-29 04:09:00,
2013-11-28 23:11:00,31.8,21.7,30.48,WNW,298,3.0,3.0,66,0.00,,,0.00,meteohub,2013-11-29 04:11:00,
2013-11-28 23:12:00,31.8,21.7,30.48,WNW,300,0.0,3.0,66,0.00,,,0.00,meteohub,2013-11-29 04:12:00,
2013-11-28 23:13:00,31.8,21.7,30.48,WNW,300,0.0,3.0,66,0.00,,,0.00,meteohub,2013-11-29 04:13:00,
2013-11-28 23:15:00,31.8,21.7,30.48,WNW,297,2.0,3.0,66,0.00,,,0.00,meteohub,2013-11-29 04:15:00,
2013-11-28 23:16:00,31.8,21.7,30.48,WNW,297,2.0,4.0,66,0.00,,,0.00,meteohub,2013-11-29 04:16:00,
2013-11-28 23:17:00,31.8,21.7,30.48,WNW,297,0.0,4.0,66,0.00,,,0.00,meteohub,2013-11-29 04:17:00,
2013-11-28 23:18:00,31.8,21.7,30.48,WNW,297,0.0,4.0,66,0.00,,,0.00,meteohub,2013-11-29 04:18:00,
2013-11-28 23:19:00,31.8,21.7,30.48,WNW,297,2.0,4.0,66,0.00,,,0.00,meteohub,2013-11-29 04:19:00,
2013-11-28 23:20:00,31.8,21.7,30.48,WNW,297,0.0,4.0,66,0.00,,,0.00,meteohub,2013-11-29 04:20:00,
2013-11-28 23:22:00,31.8,21.7,30.48,WNW,297,3.0,5.0,66,0.00,,,0.00,meteohub,2013-11-29 04:22:00,
2013-11-28 23:23:00,31.8,21.7,30.48,WNW,297,1.0,5.0,66,0.00,,,0.00,meteohub,2013-11-29 04:23:00,
2013-11-28 23:24:00,31.8,21.7,30.48,WNW,297,0.0,5.0,66,0.00,,,0.00,meteohub,2013-11-29 04:24:00,
2013-11-28 23:25:00,31.8,21.7,30.48,WNW,297,1.0,5.0,66,0.00,,,0.00,meteohub,2013-11-29 04:25:00,
2013-11-28 23:27:00,31.8,22.1,30.48,WNW,297,1.0,5.0,67,0.00,,,0.00,meteohub,2013-11-29 04:27:00,
2013-11-28 23:28:00,31.8,22.1,30.48,WNW,297,1.0,5.0,67,0.00,,,0.00,meteohub,2013-11-29 04:28:00,
2013-11-28 23:29:00,31.8,22.1,30.48,WNW,297,1.0,5.0,67,0.00,,,0.00,meteohub,2013-11-29 04:29:00,
2013-11-28 23:30:00,31.8,22.1,30.48,WNW,297,0.0,5.0,67,0.00,,,0.00,meteohub,2013-11-29 04:30:00,
2013-11-28 23:32:00,31.8,22.1,30.48,WNW,296,3.0,4.0,67,0.00,,,0.00,meteohub,2013-11-29 04:32:00,
2013-11-28 23:33:00,31.8,22.1,30.48,WNW,296,1.0,4.0,67,0.00,,,0.00,meteohub,2013-11-29 04:33:00,
2013-11-28 23:34:00,31.8,22.1,30.48,WNW,296,3.0,4.0,67,0.00,,,0.00,meteohub,2013-11-29 04:34:00,
2013-11-28 23:35:00,31.8,22.1,30.48,WNW,296,0.0,4.0,67,0.00,,,0.00,meteohub,2013-11-29 04:35:00,
2013-11-28 23:38:00,31.8,22.1,30.48,WNW,296,0.0,4.0,67,0.00,,,0.00,meteohub,2013-11-29 04:38:00,
2013-11-28 23:39:00,31.8,22.1,30.48,WNW,296,0.0,4.0,67,0.00,,,0.00,meteohub,2013-11-29 04:39:00,
2013-11-28 23:40:00,31.8,22.1,30.48,WNW,296,0.0,4.0,67,0.00,,,0.00,meteohub,2013-11-29 04:40:00,
2013-11-28 23:41:00,31.8,22.1,30.48,WNW,296,0.0,3.0,67,0.00,,,0.00,meteohub,2013-11-29 04:41:00,
2013-11-28 23:44:00,31.8,22.5,30.48,WNW,296,0.0,3.0,68,0.00,,,0.00,meteohub,2013-11-29 04:44:00,
2013-11-28 23:45:00,31.8,22.5,30.48,WNW,296,0.0,3.0,68,0.00,,,0.00,meteohub,2013-11-29 04:45:00,
2013-11-28 23:46:00,31.8,22.5,30.48,WNW,296,0.0,3.0,68,0.00,,,0.00,meteohub,2013-11-29 04:46:00,
2013-11-28 23:49:00,31.8,22.5,30.48,WNW,296,0.0,3.0,68,0.00,,,0.00,meteohub,2013-11-29 04:49:00,
2013-11-28 23:50:00,31.8,22.5,30.48,WNW,296,1.0,3.0,68,0.00,,,0.00,meteohub,2013-11-29 04:50:00,
2013-11-28 23:51:00,31.8,22.5,30.48,WNW,296,0.0,1.0,68,0.00,,,0.00,meteohub,2013-11-29 04:51:00,
2013-11-28 23:52:00,31.8,22.5,30.48,WNW,296,0.0,1.0,68,0.00,,,0.00,meteohub,2013-11-29 04:52:00,
2013-11-28 23:54:00,31.8,22.5,30.48,WNW,296,2.0,2.0,68,0.00,,,0.00,meteohub,2013-11-29 04:54:00,
2013-11-28 23:56:00,31.8,22.5,30.48,WNW,296,2.0,2.0,68,0.00,,,0.00,meteohub,2013-11-29 04:56:00,
2013-11-28 23:57:00,31.8,22.5,30.48,WNW,296,1.0,2.0,68,0.00,,,0.00,meteohub,2013-11-29 04:57:00,
2013-11-28 23:59:00,31.8,22.5,30.48,WNW,296,0.0,2.0,68,0.00,,,0.00,meteohub,2013-11-29 04:59:00,